<?xml version="1.0" encoding="UTF-8" standalone="no" ?>
<gpx xmlns="http://www.topografix.com/GPX/1/1" xmlns:xsi="http://www.w3.org/2001/XMLSchema-instance" xsi:schemaLocation="http://www.topografix.com/GPX/1/1 http://www.topografix.com/GPX/1/1/gpx.xsd" version="1.1" creator="VisuGPX - https://www.visugpx.com">
  <metadata>
    <name>Corse en kayak 1</name>
    <desc><![CDATA[Cabotage en kayak en Corse]]></desc>
  </metadata>
  <trk>
    <name><![CDATA[AUG-30-11 16:13:29]]></name>
    <trkseg>
      <trkpt lat="41.71861" lon="8.72921">
        <ele>4.46</ele>
        <time>2011-08-30T07:31:07Z</time>
      </trkpt>
      <trkpt lat="41.71862" lon="8.7292">
        <ele>4.94</ele>
        <time>2011-08-30T07:31:08Z</time>
      </trkpt>
      <trkpt lat="41.71864" lon="8.72919">
        <ele>4.46</ele>
        <time>2011-08-30T07:31:09Z</time>
      </trkpt>
      <trkpt lat="41.71874" lon="8.72908">
        <ele>2.06</ele>
        <time>2011-08-30T07:31:12Z</time>
      </trkpt>
      <trkpt lat="41.71885" lon="8.72903">
        <ele>-2.27</ele>
        <time>2011-08-30T07:31:23Z</time>
      </trkpt>
      <trkpt lat="41.71889" lon="8.72901">
        <ele>-1.3</ele>
        <time>2011-08-30T07:31:31Z</time>
      </trkpt>
      <trkpt lat="41.719" lon="8.72902">
        <ele>-0.82</ele>
        <time>2011-08-30T07:32:44Z</time>
      </trkpt>
      <trkpt lat="41.71903" lon="8.72911">
        <ele>-0.82</ele>
        <time>2011-08-30T07:33:02Z</time>
      </trkpt>
      <trkpt lat="41.71899" lon="8.72931">
        <ele>0.14</ele>
        <time>2011-08-30T07:33:13Z</time>
      </trkpt>
      <trkpt lat="41.71887" lon="8.7296">
        <ele>-0.82</ele>
        <time>2011-08-30T07:33:28Z</time>
      </trkpt>
      <trkpt lat="41.7188" lon="8.72985">
        <ele>-0.34</ele>
        <time>2011-08-30T07:33:40Z</time>
      </trkpt>
      <trkpt lat="41.71868" lon="8.7302">
        <ele>-0.34</ele>
        <time>2011-08-30T07:33:57Z</time>
      </trkpt>
      <trkpt lat="41.71856" lon="8.7305">
        <ele>0.14</ele>
        <time>2011-08-30T07:34:12Z</time>
      </trkpt>
      <trkpt lat="41.71846" lon="8.73074">
        <ele>-0.34</ele>
        <time>2011-08-30T07:34:24Z</time>
      </trkpt>
      <trkpt lat="41.71838" lon="8.731">
        <ele>0.14</ele>
        <time>2011-08-30T07:34:37Z</time>
      </trkpt>
      <trkpt lat="41.71825" lon="8.73134">
        <ele>-0.34</ele>
        <time>2011-08-30T07:34:54Z</time>
      </trkpt>
      <trkpt lat="41.71813" lon="8.73162">
        <ele>-0.34</ele>
        <time>2011-08-30T07:35:09Z</time>
      </trkpt>
      <trkpt lat="41.71804" lon="8.73184">
        <ele>-0.34</ele>
        <time>2011-08-30T07:35:21Z</time>
      </trkpt>
      <trkpt lat="41.71794" lon="8.73207">
        <ele>-0.34</ele>
        <time>2011-08-30T07:35:33Z</time>
      </trkpt>
      <trkpt lat="41.71785" lon="8.73231">
        <ele>-0.34</ele>
        <time>2011-08-30T07:35:46Z</time>
      </trkpt>
      <trkpt lat="41.71779" lon="8.73254">
        <ele>-0.34</ele>
        <time>2011-08-30T07:35:58Z</time>
      </trkpt>
      <trkpt lat="41.71768" lon="8.73285">
        <ele>-0.34</ele>
        <time>2011-08-30T07:36:14Z</time>
      </trkpt>
      <trkpt lat="41.71759" lon="8.73312">
        <ele>-0.34</ele>
        <time>2011-08-30T07:36:28Z</time>
      </trkpt>
      <trkpt lat="41.7175" lon="8.7334">
        <ele>-0.82</ele>
        <time>2011-08-30T07:36:42Z</time>
      </trkpt>
      <trkpt lat="41.71742" lon="8.73363">
        <ele>-0.82</ele>
        <time>2011-08-30T07:36:54Z</time>
      </trkpt>
      <trkpt lat="41.71734" lon="8.73389">
        <ele>-0.34</ele>
        <time>2011-08-30T07:37:07Z</time>
      </trkpt>
      <trkpt lat="41.71724" lon="8.73419">
        <ele>-0.34</ele>
        <time>2011-08-30T07:37:22Z</time>
      </trkpt>
      <trkpt lat="41.71718" lon="8.73439">
        <ele>-0.34</ele>
        <time>2011-08-30T07:37:34Z</time>
      </trkpt>
      <trkpt lat="41.7171" lon="8.73464">
        <ele>-0.34</ele>
        <time>2011-08-30T07:37:47Z</time>
      </trkpt>
      <trkpt lat="41.71701" lon="8.73485">
        <ele>-0.34</ele>
        <time>2011-08-30T07:38:00Z</time>
      </trkpt>
      <trkpt lat="41.71693" lon="8.73509">
        <ele>-0.34</ele>
        <time>2011-08-30T07:38:15Z</time>
      </trkpt>
      <trkpt lat="41.7168" lon="8.73539">
        <ele>-0.34</ele>
        <time>2011-08-30T07:38:31Z</time>
      </trkpt>
      <trkpt lat="41.71667" lon="8.73571">
        <ele>-0.34</ele>
        <time>2011-08-30T07:38:48Z</time>
      </trkpt>
      <trkpt lat="41.71661" lon="8.73588">
        <ele>-1.3</ele>
        <time>2011-08-30T07:39:02Z</time>
      </trkpt>
      <trkpt lat="41.71655" lon="8.73604">
        <ele>-0.82</ele>
        <time>2011-08-30T07:39:16Z</time>
      </trkpt>
      <trkpt lat="41.71643" lon="8.73633">
        <ele>-0.82</ele>
        <time>2011-08-30T07:39:32Z</time>
      </trkpt>
      <trkpt lat="41.71632" lon="8.7366">
        <ele>-0.82</ele>
        <time>2011-08-30T07:39:47Z</time>
      </trkpt>
      <trkpt lat="41.71622" lon="8.73682">
        <ele>-0.34</ele>
        <time>2011-08-30T07:40:00Z</time>
      </trkpt>
      <trkpt lat="41.71613" lon="8.73709">
        <ele>-0.82</ele>
        <time>2011-08-30T07:40:14Z</time>
      </trkpt>
      <trkpt lat="41.71605" lon="8.73738">
        <ele>-0.82</ele>
        <time>2011-08-30T07:40:28Z</time>
      </trkpt>
      <trkpt lat="41.71596" lon="8.73765">
        <ele>-0.82</ele>
        <time>2011-08-30T07:40:42Z</time>
      </trkpt>
      <trkpt lat="41.71587" lon="8.73792">
        <ele>-0.34</ele>
        <time>2011-08-30T07:40:56Z</time>
      </trkpt>
      <trkpt lat="41.71578" lon="8.73824">
        <ele>-0.82</ele>
        <time>2011-08-30T07:41:12Z</time>
      </trkpt>
      <trkpt lat="41.71569" lon="8.73852">
        <ele>-0.82</ele>
        <time>2011-08-30T07:41:26Z</time>
      </trkpt>
      <trkpt lat="41.71559" lon="8.73881">
        <ele>-0.34</ele>
        <time>2011-08-30T07:41:42Z</time>
      </trkpt>
      <trkpt lat="41.71549" lon="8.73911">
        <ele>-0.82</ele>
        <time>2011-08-30T07:41:58Z</time>
      </trkpt>
      <trkpt lat="41.71537" lon="8.73937">
        <ele>-0.82</ele>
        <time>2011-08-30T07:42:12Z</time>
      </trkpt>
      <trkpt lat="41.71525" lon="8.73958">
        <ele>-0.82</ele>
        <time>2011-08-30T07:42:25Z</time>
      </trkpt>
      <trkpt lat="41.71514" lon="8.73967">
        <ele>-0.34</ele>
        <time>2011-08-30T07:42:41Z</time>
      </trkpt>
      <trkpt lat="41.71511" lon="8.7397">
        <ele>-0.82</ele>
        <time>2011-08-30T07:42:45Z</time>
      </trkpt>
      <trkpt lat="41.71506" lon="8.7398">
        <ele>-0.82</ele>
        <time>2011-08-30T07:42:51Z</time>
      </trkpt>
      <trkpt lat="41.71496" lon="8.74009">
        <ele>-0.34</ele>
        <time>2011-08-30T07:43:06Z</time>
      </trkpt>
      <trkpt lat="41.71486" lon="8.74036">
        <ele>-0.82</ele>
        <time>2011-08-30T07:43:19Z</time>
      </trkpt>
      <trkpt lat="41.71475" lon="8.74066">
        <ele>-1.3</ele>
        <time>2011-08-30T07:43:33Z</time>
      </trkpt>
      <trkpt lat="41.71463" lon="8.74102">
        <ele>-0.82</ele>
        <time>2011-08-30T07:43:48Z</time>
      </trkpt>
      <trkpt lat="41.71453" lon="8.74136">
        <ele>-0.34</ele>
        <time>2011-08-30T07:44:04Z</time>
      </trkpt>
      <trkpt lat="41.71446" lon="8.74161">
        <ele>-1.3</ele>
        <time>2011-08-30T07:44:16Z</time>
      </trkpt>
      <trkpt lat="41.71442" lon="8.74186">
        <ele>-0.82</ele>
        <time>2011-08-30T07:44:29Z</time>
      </trkpt>
      <trkpt lat="41.71434" lon="8.74208">
        <ele>-0.34</ele>
        <time>2011-08-30T07:44:43Z</time>
      </trkpt>
      <trkpt lat="41.71434" lon="8.74214">
        <ele>-0.82</ele>
        <time>2011-08-30T07:44:48Z</time>
      </trkpt>
      <trkpt lat="41.71429" lon="8.74224">
        <ele>-0.82</ele>
        <time>2011-08-30T07:44:55Z</time>
      </trkpt>
      <trkpt lat="41.71418" lon="8.7425">
        <ele>-0.82</ele>
        <time>2011-08-30T07:45:10Z</time>
      </trkpt>
      <trkpt lat="41.71407" lon="8.74277">
        <ele>-0.34</ele>
        <time>2011-08-30T07:45:25Z</time>
      </trkpt>
      <trkpt lat="41.71397" lon="8.743">
        <ele>-0.82</ele>
        <time>2011-08-30T07:45:38Z</time>
      </trkpt>
      <trkpt lat="41.71389" lon="8.74321">
        <ele>-0.82</ele>
        <time>2011-08-30T07:45:51Z</time>
      </trkpt>
      <trkpt lat="41.7138" lon="8.74339">
        <ele>-0.34</ele>
        <time>2011-08-30T07:46:05Z</time>
      </trkpt>
      <trkpt lat="41.71368" lon="8.74367">
        <ele>-0.34</ele>
        <time>2011-08-30T07:46:20Z</time>
      </trkpt>
      <trkpt lat="41.71365" lon="8.74374">
        <ele>-0.82</ele>
        <time>2011-08-30T07:46:24Z</time>
      </trkpt>
      <trkpt lat="41.71352" lon="8.74404">
        <ele>-0.34</ele>
        <time>2011-08-30T07:46:40Z</time>
      </trkpt>
      <trkpt lat="41.71339" lon="8.74429">
        <ele>-0.82</ele>
        <time>2011-08-30T07:46:54Z</time>
      </trkpt>
      <trkpt lat="41.71328" lon="8.74453">
        <ele>-0.34</ele>
        <time>2011-08-30T07:47:07Z</time>
      </trkpt>
      <trkpt lat="41.71316" lon="8.74482">
        <ele>-0.82</ele>
        <time>2011-08-30T07:47:23Z</time>
      </trkpt>
      <trkpt lat="41.71304" lon="8.74512">
        <ele>-0.82</ele>
        <time>2011-08-30T07:47:38Z</time>
      </trkpt>
      <trkpt lat="41.71291" lon="8.74544">
        <ele>-1.3</ele>
        <time>2011-08-30T07:47:54Z</time>
      </trkpt>
      <trkpt lat="41.7128" lon="8.74572">
        <ele>-1.3</ele>
        <time>2011-08-30T07:48:09Z</time>
      </trkpt>
      <trkpt lat="41.71267" lon="8.74604">
        <ele>-0.82</ele>
        <time>2011-08-30T07:48:25Z</time>
      </trkpt>
      <trkpt lat="41.71258" lon="8.74635">
        <ele>-0.82</ele>
        <time>2011-08-30T07:48:41Z</time>
      </trkpt>
      <trkpt lat="41.71246" lon="8.74664">
        <ele>-0.82</ele>
        <time>2011-08-30T07:48:57Z</time>
      </trkpt>
      <trkpt lat="41.71238" lon="8.7469">
        <ele>-0.82</ele>
        <time>2011-08-30T07:49:11Z</time>
      </trkpt>
      <trkpt lat="41.71228" lon="8.74718">
        <ele>-0.82</ele>
        <time>2011-08-30T07:49:25Z</time>
      </trkpt>
      <trkpt lat="41.71222" lon="8.74743">
        <ele>-0.82</ele>
        <time>2011-08-30T07:49:37Z</time>
      </trkpt>
      <trkpt lat="41.71214" lon="8.74769">
        <ele>-1.3</ele>
        <time>2011-08-30T07:49:53Z</time>
      </trkpt>
      <trkpt lat="41.71211" lon="8.74778">
        <ele>-0.82</ele>
        <time>2011-08-30T07:50:08Z</time>
      </trkpt>
      <trkpt lat="41.71214" lon="8.74776">
        <ele>-0.82</ele>
        <time>2011-08-30T07:50:25Z</time>
      </trkpt>
      <trkpt lat="41.71215" lon="8.74775">
        <ele>-1.3</ele>
        <time>2011-08-30T07:50:45Z</time>
      </trkpt>
      <trkpt lat="41.71216" lon="8.74779">
        <ele>-1.3</ele>
        <time>2011-08-30T07:51:00Z</time>
      </trkpt>
      <trkpt lat="41.71216" lon="8.74785">
        <ele>-1.3</ele>
        <time>2011-08-30T07:51:04Z</time>
      </trkpt>
      <trkpt lat="41.71213" lon="8.74806">
        <ele>-1.3</ele>
        <time>2011-08-30T07:51:21Z</time>
      </trkpt>
      <trkpt lat="41.71205" lon="8.74827">
        <ele>-1.3</ele>
        <time>2011-08-30T07:51:34Z</time>
      </trkpt>
      <trkpt lat="41.71197" lon="8.7485">
        <ele>-1.3</ele>
        <time>2011-08-30T07:51:47Z</time>
      </trkpt>
      <trkpt lat="41.7119" lon="8.74865">
        <ele>-0.82</ele>
        <time>2011-08-30T07:52:03Z</time>
      </trkpt>
      <trkpt lat="41.71192" lon="8.74872">
        <ele>-0.82</ele>
        <time>2011-08-30T07:52:18Z</time>
      </trkpt>
      <trkpt lat="41.71193" lon="8.74877">
        <ele>-0.82</ele>
        <time>2011-08-30T07:52:32Z</time>
      </trkpt>
      <trkpt lat="41.71193" lon="8.74879">
        <ele>-0.82</ele>
        <time>2011-08-30T07:52:36Z</time>
      </trkpt>
      <trkpt lat="41.71191" lon="8.74904">
        <ele>-1.3</ele>
        <time>2011-08-30T07:52:51Z</time>
      </trkpt>
      <trkpt lat="41.7118" lon="8.7493">
        <ele>-1.3</ele>
        <time>2011-08-30T07:53:05Z</time>
      </trkpt>
      <trkpt lat="41.71167" lon="8.74958">
        <ele>-0.82</ele>
        <time>2011-08-30T07:53:20Z</time>
      </trkpt>
      <trkpt lat="41.71156" lon="8.74986">
        <ele>-1.3</ele>
        <time>2011-08-30T07:53:34Z</time>
      </trkpt>
      <trkpt lat="41.71149" lon="8.7501">
        <ele>-0.82</ele>
        <time>2011-08-30T07:53:46Z</time>
      </trkpt>
      <trkpt lat="41.71143" lon="8.75034">
        <ele>-0.34</ele>
        <time>2011-08-30T07:53:58Z</time>
      </trkpt>
      <trkpt lat="41.71135" lon="8.75064">
        <ele>-0.82</ele>
        <time>2011-08-30T07:54:14Z</time>
      </trkpt>
      <trkpt lat="41.71124" lon="8.75094">
        <ele>-0.82</ele>
        <time>2011-08-30T07:54:30Z</time>
      </trkpt>
      <trkpt lat="41.71113" lon="8.75116">
        <ele>-0.82</ele>
        <time>2011-08-30T07:54:45Z</time>
      </trkpt>
      <trkpt lat="41.71101" lon="8.75143">
        <ele>-1.3</ele>
        <time>2011-08-30T07:55:01Z</time>
      </trkpt>
      <trkpt lat="41.71093" lon="8.75166">
        <ele>-0.82</ele>
        <time>2011-08-30T07:55:14Z</time>
      </trkpt>
      <trkpt lat="41.71085" lon="8.75189">
        <ele>-0.82</ele>
        <time>2011-08-30T07:55:28Z</time>
      </trkpt>
      <trkpt lat="41.71075" lon="8.75214">
        <ele>-1.3</ele>
        <time>2011-08-30T07:55:43Z</time>
      </trkpt>
      <trkpt lat="41.71073" lon="8.7522">
        <ele>-0.82</ele>
        <time>2011-08-30T07:55:46Z</time>
      </trkpt>
      <trkpt lat="41.71061" lon="8.75249">
        <ele>-1.3</ele>
        <time>2011-08-30T07:56:02Z</time>
      </trkpt>
      <trkpt lat="41.7105" lon="8.75278">
        <ele>-1.3</ele>
        <time>2011-08-30T07:56:17Z</time>
      </trkpt>
      <trkpt lat="41.71037" lon="8.75307">
        <ele>-0.82</ele>
        <time>2011-08-30T07:56:33Z</time>
      </trkpt>
      <trkpt lat="41.71026" lon="8.75331">
        <ele>-1.3</ele>
        <time>2011-08-30T07:56:47Z</time>
      </trkpt>
      <trkpt lat="41.71016" lon="8.75357">
        <ele>-0.82</ele>
        <time>2011-08-30T07:57:02Z</time>
      </trkpt>
      <trkpt lat="41.71006" lon="8.7538">
        <ele>-1.3</ele>
        <time>2011-08-30T07:57:15Z</time>
      </trkpt>
      <trkpt lat="41.70997" lon="8.75406">
        <ele>-1.3</ele>
        <time>2011-08-30T07:57:28Z</time>
      </trkpt>
      <trkpt lat="41.70988" lon="8.75433">
        <ele>-1.3</ele>
        <time>2011-08-30T07:57:42Z</time>
      </trkpt>
      <trkpt lat="41.70978" lon="8.75456">
        <ele>-1.3</ele>
        <time>2011-08-30T07:57:55Z</time>
      </trkpt>
      <trkpt lat="41.7097" lon="8.75479">
        <ele>-0.82</ele>
        <time>2011-08-30T07:58:08Z</time>
      </trkpt>
      <trkpt lat="41.70968" lon="8.7549">
        <ele>-1.3</ele>
        <time>2011-08-30T07:58:14Z</time>
      </trkpt>
      <trkpt lat="41.70965" lon="8.75496">
        <ele>-1.3</ele>
        <time>2011-08-30T07:58:18Z</time>
      </trkpt>
      <trkpt lat="41.70956" lon="8.75521">
        <ele>-1.3</ele>
        <time>2011-08-30T07:58:32Z</time>
      </trkpt>
      <trkpt lat="41.70948" lon="8.75544">
        <ele>-1.3</ele>
        <time>2011-08-30T07:58:45Z</time>
      </trkpt>
      <trkpt lat="41.70936" lon="8.75575">
        <ele>-2.27</ele>
        <time>2011-08-30T07:59:02Z</time>
      </trkpt>
      <trkpt lat="41.70927" lon="8.756">
        <ele>-1.79</ele>
        <time>2011-08-30T07:59:16Z</time>
      </trkpt>
      <trkpt lat="41.70918" lon="8.75623">
        <ele>-1.3</ele>
        <time>2011-08-30T07:59:28Z</time>
      </trkpt>
      <trkpt lat="41.70908" lon="8.75644">
        <ele>-1.3</ele>
        <time>2011-08-30T07:59:42Z</time>
      </trkpt>
      <trkpt lat="41.70904" lon="8.75655">
        <ele>-1.3</ele>
        <time>2011-08-30T07:59:48Z</time>
      </trkpt>
      <trkpt lat="41.70891" lon="8.75687">
        <ele>-1.79</ele>
        <time>2011-08-30T08:00:06Z</time>
      </trkpt>
      <trkpt lat="41.70884" lon="8.75706">
        <ele>-1.79</ele>
        <time>2011-08-30T08:00:20Z</time>
      </trkpt>
      <trkpt lat="41.70876" lon="8.75725">
        <ele>-0.82</ele>
        <time>2011-08-30T08:00:36Z</time>
      </trkpt>
      <trkpt lat="41.70865" lon="8.75752">
        <ele>-1.79</ele>
        <time>2011-08-30T08:00:51Z</time>
      </trkpt>
      <trkpt lat="41.70854" lon="8.75779">
        <ele>-1.79</ele>
        <time>2011-08-30T08:01:06Z</time>
      </trkpt>
      <trkpt lat="41.70844" lon="8.75799">
        <ele>-1.79</ele>
        <time>2011-08-30T08:01:18Z</time>
      </trkpt>
      <trkpt lat="41.70835" lon="8.75824">
        <ele>-1.79</ele>
        <time>2011-08-30T08:01:32Z</time>
      </trkpt>
      <trkpt lat="41.70825" lon="8.75851">
        <ele>-2.27</ele>
        <time>2011-08-30T08:01:47Z</time>
      </trkpt>
      <trkpt lat="41.70814" lon="8.75878">
        <ele>-1.79</ele>
        <time>2011-08-30T08:02:02Z</time>
      </trkpt>
      <trkpt lat="41.70802" lon="8.75903">
        <ele>-1.79</ele>
        <time>2011-08-30T08:02:17Z</time>
      </trkpt>
      <trkpt lat="41.70795" lon="8.75925">
        <ele>-1.3</ele>
        <time>2011-08-30T08:02:30Z</time>
      </trkpt>
      <trkpt lat="41.7079" lon="8.75935">
        <ele>-2.27</ele>
        <time>2011-08-30T08:02:36Z</time>
      </trkpt>
      <trkpt lat="41.7078" lon="8.75959">
        <ele>-1.79</ele>
        <time>2011-08-30T08:02:49Z</time>
      </trkpt>
      <trkpt lat="41.70769" lon="8.75989">
        <ele>-2.27</ele>
        <time>2011-08-30T08:03:05Z</time>
      </trkpt>
      <trkpt lat="41.70761" lon="8.76011">
        <ele>-1.79</ele>
        <time>2011-08-30T08:03:18Z</time>
      </trkpt>
      <trkpt lat="41.70749" lon="8.76041">
        <ele>-2.27</ele>
        <time>2011-08-30T08:03:35Z</time>
      </trkpt>
      <trkpt lat="41.7074" lon="8.76063">
        <ele>-2.75</ele>
        <time>2011-08-30T08:03:49Z</time>
      </trkpt>
      <trkpt lat="41.70731" lon="8.76086">
        <ele>-2.27</ele>
        <time>2011-08-30T08:04:02Z</time>
      </trkpt>
      <trkpt lat="41.70724" lon="8.76104">
        <ele>-1.79</ele>
        <time>2011-08-30T08:04:12Z</time>
      </trkpt>
      <trkpt lat="41.70716" lon="8.76129">
        <ele>-2.27</ele>
        <time>2011-08-30T08:04:26Z</time>
      </trkpt>
      <trkpt lat="41.70706" lon="8.76151">
        <ele>-2.27</ele>
        <time>2011-08-30T08:04:39Z</time>
      </trkpt>
      <trkpt lat="41.70697" lon="8.76175">
        <ele>-2.75</ele>
        <time>2011-08-30T08:04:53Z</time>
      </trkpt>
      <trkpt lat="41.70685" lon="8.76199">
        <ele>-2.27</ele>
        <time>2011-08-30T08:05:08Z</time>
      </trkpt>
      <trkpt lat="41.70676" lon="8.76218">
        <ele>-2.75</ele>
        <time>2011-08-30T08:05:21Z</time>
      </trkpt>
      <trkpt lat="41.70666" lon="8.76245">
        <ele>-2.27</ele>
        <time>2011-08-30T08:05:37Z</time>
      </trkpt>
      <trkpt lat="41.70655" lon="8.7627">
        <ele>-2.75</ele>
        <time>2011-08-30T08:05:51Z</time>
      </trkpt>
      <trkpt lat="41.70644" lon="8.763">
        <ele>-2.27</ele>
        <time>2011-08-30T08:06:07Z</time>
      </trkpt>
      <trkpt lat="41.70634" lon="8.76322">
        <ele>-1.79</ele>
        <time>2011-08-30T08:06:20Z</time>
      </trkpt>
      <trkpt lat="41.70623" lon="8.76349">
        <ele>-2.27</ele>
        <time>2011-08-30T08:06:35Z</time>
      </trkpt>
      <trkpt lat="41.70613" lon="8.76373">
        <ele>-2.27</ele>
        <time>2011-08-30T08:06:49Z</time>
      </trkpt>
      <trkpt lat="41.706" lon="8.76404">
        <ele>-2.27</ele>
        <time>2011-08-30T08:07:06Z</time>
      </trkpt>
      <trkpt lat="41.70587" lon="8.76436">
        <ele>-2.75</ele>
        <time>2011-08-30T08:07:23Z</time>
      </trkpt>
      <trkpt lat="41.70579" lon="8.7646">
        <ele>-2.27</ele>
        <time>2011-08-30T08:07:37Z</time>
      </trkpt>
      <trkpt lat="41.70567" lon="8.7649">
        <ele>-2.27</ele>
        <time>2011-08-30T08:07:54Z</time>
      </trkpt>
      <trkpt lat="41.70558" lon="8.76513">
        <ele>-2.27</ele>
        <time>2011-08-30T08:08:07Z</time>
      </trkpt>
      <trkpt lat="41.70545" lon="8.76552">
        <ele>-2.27</ele>
        <time>2011-08-30T08:08:26Z</time>
      </trkpt>
      <trkpt lat="41.70535" lon="8.76577">
        <ele>-2.27</ele>
        <time>2011-08-30T08:08:39Z</time>
      </trkpt>
      <trkpt lat="41.70523" lon="8.76608">
        <ele>-2.27</ele>
        <time>2011-08-30T08:08:55Z</time>
      </trkpt>
      <trkpt lat="41.70509" lon="8.76642">
        <ele>-2.75</ele>
        <time>2011-08-30T08:09:12Z</time>
      </trkpt>
      <trkpt lat="41.70498" lon="8.76667">
        <ele>-2.27</ele>
        <time>2011-08-30T08:09:25Z</time>
      </trkpt>
      <trkpt lat="41.70488" lon="8.76693">
        <ele>-2.27</ele>
        <time>2011-08-30T08:09:39Z</time>
      </trkpt>
      <trkpt lat="41.70475" lon="8.76723">
        <ele>-2.27</ele>
        <time>2011-08-30T08:09:55Z</time>
      </trkpt>
      <trkpt lat="41.70468" lon="8.76743">
        <ele>-1.79</ele>
        <time>2011-08-30T08:10:08Z</time>
      </trkpt>
      <trkpt lat="41.70468" lon="8.76747">
        <ele>-6.11</ele>
        <time>2011-08-30T08:10:12Z</time>
      </trkpt>
      <trkpt lat="41.70468" lon="8.76748">
        <ele>-3.23</ele>
        <time>2011-08-30T08:10:13Z</time>
      </trkpt>
      <trkpt lat="41.70467" lon="8.76751">
        <ele>-1.79</ele>
        <time>2011-08-30T08:10:17Z</time>
      </trkpt>
      <trkpt lat="41.70464" lon="8.76761">
        <ele>-1.79</ele>
        <time>2011-08-30T08:10:33Z</time>
      </trkpt>
      <trkpt lat="41.70456" lon="8.76789">
        <ele>-2.27</ele>
        <time>2011-08-30T08:10:47Z</time>
      </trkpt>
      <trkpt lat="41.70445" lon="8.76817">
        <ele>-2.27</ele>
        <time>2011-08-30T08:11:00Z</time>
      </trkpt>
      <trkpt lat="41.70434" lon="8.76841">
        <ele>-2.27</ele>
        <time>2011-08-30T08:11:13Z</time>
      </trkpt>
      <trkpt lat="41.70423" lon="8.76869">
        <ele>-2.27</ele>
        <time>2011-08-30T08:11:28Z</time>
      </trkpt>
      <trkpt lat="41.70411" lon="8.76897">
        <ele>-2.27</ele>
        <time>2011-08-30T08:11:43Z</time>
      </trkpt>
      <trkpt lat="41.70401" lon="8.76926">
        <ele>-2.27</ele>
        <time>2011-08-30T08:11:57Z</time>
      </trkpt>
      <trkpt lat="41.70391" lon="8.7695">
        <ele>-2.27</ele>
        <time>2011-08-30T08:12:10Z</time>
      </trkpt>
      <trkpt lat="41.70379" lon="8.76979">
        <ele>-2.27</ele>
        <time>2011-08-30T08:12:25Z</time>
      </trkpt>
      <trkpt lat="41.70368" lon="8.77009">
        <ele>-2.27</ele>
        <time>2011-08-30T08:12:41Z</time>
      </trkpt>
      <trkpt lat="41.70356" lon="8.77041">
        <ele>-2.27</ele>
        <time>2011-08-30T08:12:58Z</time>
      </trkpt>
      <trkpt lat="41.70346" lon="8.77068">
        <ele>-2.75</ele>
        <time>2011-08-30T08:13:14Z</time>
      </trkpt>
      <trkpt lat="41.70342" lon="8.77077">
        <ele>-2.27</ele>
        <time>2011-08-30T08:13:19Z</time>
      </trkpt>
      <trkpt lat="41.70329" lon="8.77108">
        <ele>-2.75</ele>
        <time>2011-08-30T08:13:36Z</time>
      </trkpt>
      <trkpt lat="41.70321" lon="8.77131">
        <ele>-1.79</ele>
        <time>2011-08-30T08:13:48Z</time>
      </trkpt>
      <trkpt lat="41.70309" lon="8.77163">
        <ele>-2.27</ele>
        <time>2011-08-30T08:14:04Z</time>
      </trkpt>
      <trkpt lat="41.70299" lon="8.77188">
        <ele>-2.75</ele>
        <time>2011-08-30T08:14:18Z</time>
      </trkpt>
      <trkpt lat="41.70291" lon="8.77213">
        <ele>-2.27</ele>
        <time>2011-08-30T08:14:31Z</time>
      </trkpt>
      <trkpt lat="41.7029" lon="8.77215">
        <ele>-2.27</ele>
        <time>2011-08-30T08:14:32Z</time>
      </trkpt>
      <trkpt lat="41.7028" lon="8.7724">
        <ele>-2.75</ele>
        <time>2011-08-30T08:14:46Z</time>
      </trkpt>
      <trkpt lat="41.70268" lon="8.77266">
        <ele>-2.27</ele>
        <time>2011-08-30T08:14:59Z</time>
      </trkpt>
      <trkpt lat="41.70262" lon="8.77278">
        <ele>-2.75</ele>
        <time>2011-08-30T08:15:05Z</time>
      </trkpt>
      <trkpt lat="41.70251" lon="8.77307">
        <ele>-2.27</ele>
        <time>2011-08-30T08:15:20Z</time>
      </trkpt>
      <trkpt lat="41.70239" lon="8.77335">
        <ele>-1.79</ele>
        <time>2011-08-30T08:15:35Z</time>
      </trkpt>
      <trkpt lat="41.70229" lon="8.77362">
        <ele>-2.27</ele>
        <time>2011-08-30T08:15:49Z</time>
      </trkpt>
      <trkpt lat="41.70218" lon="8.7739">
        <ele>-2.27</ele>
        <time>2011-08-30T08:16:04Z</time>
      </trkpt>
      <trkpt lat="41.70207" lon="8.77417">
        <ele>-1.79</ele>
        <time>2011-08-30T08:16:19Z</time>
      </trkpt>
      <trkpt lat="41.70197" lon="8.77442">
        <ele>-2.27</ele>
        <time>2011-08-30T08:16:32Z</time>
      </trkpt>
      <trkpt lat="41.70184" lon="8.77468">
        <ele>-2.27</ele>
        <time>2011-08-30T08:16:47Z</time>
      </trkpt>
      <trkpt lat="41.70171" lon="8.77492">
        <ele>-2.27</ele>
        <time>2011-08-30T08:17:01Z</time>
      </trkpt>
      <trkpt lat="41.70161" lon="8.77519">
        <ele>-1.79</ele>
        <time>2011-08-30T08:17:15Z</time>
      </trkpt>
      <trkpt lat="41.70149" lon="8.7754">
        <ele>-1.79</ele>
        <time>2011-08-30T08:17:29Z</time>
      </trkpt>
      <trkpt lat="41.70138" lon="8.77569">
        <ele>-1.79</ele>
        <time>2011-08-30T08:17:44Z</time>
      </trkpt>
      <trkpt lat="41.70127" lon="8.77596">
        <ele>-2.27</ele>
        <time>2011-08-30T08:17:58Z</time>
      </trkpt>
      <trkpt lat="41.70117" lon="8.77619">
        <ele>-1.79</ele>
        <time>2011-08-30T08:18:10Z</time>
      </trkpt>
      <trkpt lat="41.70101" lon="8.77652">
        <ele>-1.79</ele>
        <time>2011-08-30T08:18:27Z</time>
      </trkpt>
      <trkpt lat="41.7009" lon="8.77681">
        <ele>-1.3</ele>
        <time>2011-08-30T08:18:41Z</time>
      </trkpt>
      <trkpt lat="41.7008" lon="8.77706">
        <ele>-1.79</ele>
        <time>2011-08-30T08:18:54Z</time>
      </trkpt>
      <trkpt lat="41.70067" lon="8.77732">
        <ele>-1.79</ele>
        <time>2011-08-30T08:19:08Z</time>
      </trkpt>
      <trkpt lat="41.70056" lon="8.77747">
        <ele>-2.27</ele>
        <time>2011-08-30T08:19:22Z</time>
      </trkpt>
      <trkpt lat="41.70054" lon="8.77756">
        <ele>-1.79</ele>
        <time>2011-08-30T08:19:30Z</time>
      </trkpt>
      <trkpt lat="41.70042" lon="8.77777">
        <ele>-1.3</ele>
        <time>2011-08-30T08:19:46Z</time>
      </trkpt>
      <trkpt lat="41.70035" lon="8.77795">
        <ele>-2.27</ele>
        <time>2011-08-30T08:20:00Z</time>
      </trkpt>
      <trkpt lat="41.70025" lon="8.77816">
        <ele>-1.3</ele>
        <time>2011-08-30T08:20:14Z</time>
      </trkpt>
      <trkpt lat="41.70013" lon="8.77848">
        <ele>-1.79</ele>
        <time>2011-08-30T08:20:31Z</time>
      </trkpt>
      <trkpt lat="41.70008" lon="8.77874">
        <ele>-1.3</ele>
        <time>2011-08-30T08:20:44Z</time>
      </trkpt>
      <trkpt lat="41.7" lon="8.77896">
        <ele>-1.3</ele>
        <time>2011-08-30T08:20:57Z</time>
      </trkpt>
      <trkpt lat="41.6999" lon="8.77923">
        <ele>-1.79</ele>
        <time>2011-08-30T08:21:12Z</time>
      </trkpt>
      <trkpt lat="41.6998" lon="8.77943">
        <ele>-1.3</ele>
        <time>2011-08-30T08:21:24Z</time>
      </trkpt>
      <trkpt lat="41.69973" lon="8.7797">
        <ele>-1.3</ele>
        <time>2011-08-30T08:21:38Z</time>
      </trkpt>
      <trkpt lat="41.69963" lon="8.77989">
        <ele>-1.3</ele>
        <time>2011-08-30T08:21:51Z</time>
      </trkpt>
      <trkpt lat="41.69946" lon="8.78014">
        <ele>-0.82</ele>
        <time>2011-08-30T08:22:07Z</time>
      </trkpt>
      <trkpt lat="41.69937" lon="8.78033">
        <ele>-1.79</ele>
        <time>2011-08-30T08:22:22Z</time>
      </trkpt>
      <trkpt lat="41.69926" lon="8.78052">
        <ele>-1.3</ele>
        <time>2011-08-30T08:22:35Z</time>
      </trkpt>
      <trkpt lat="41.69921" lon="8.78077">
        <ele>-1.79</ele>
        <time>2011-08-30T08:22:48Z</time>
      </trkpt>
      <trkpt lat="41.69914" lon="8.78093">
        <ele>-0.82</ele>
        <time>2011-08-30T08:23:04Z</time>
      </trkpt>
      <trkpt lat="41.69908" lon="8.78115">
        <ele>-0.82</ele>
        <time>2011-08-30T08:23:17Z</time>
      </trkpt>
      <trkpt lat="41.69903" lon="8.78144">
        <ele>-1.3</ele>
        <time>2011-08-30T08:23:33Z</time>
      </trkpt>
      <trkpt lat="41.69898" lon="8.78178">
        <ele>-1.3</ele>
        <time>2011-08-30T08:23:49Z</time>
      </trkpt>
      <trkpt lat="41.69893" lon="8.78206">
        <ele>-1.3</ele>
        <time>2011-08-30T08:24:03Z</time>
      </trkpt>
      <trkpt lat="41.69889" lon="8.78236">
        <ele>-1.3</ele>
        <time>2011-08-30T08:24:18Z</time>
      </trkpt>
      <trkpt lat="41.69881" lon="8.78261">
        <ele>-1.3</ele>
        <time>2011-08-30T08:24:32Z</time>
      </trkpt>
      <trkpt lat="41.69872" lon="8.7828">
        <ele>-0.82</ele>
        <time>2011-08-30T08:24:46Z</time>
      </trkpt>
      <trkpt lat="41.69872" lon="8.78307">
        <ele>-1.3</ele>
        <time>2011-08-30T08:25:01Z</time>
      </trkpt>
      <trkpt lat="41.69878" lon="8.78337">
        <ele>-0.82</ele>
        <time>2011-08-30T08:25:19Z</time>
      </trkpt>
      <trkpt lat="41.69878" lon="8.78339">
        <ele>-1.3</ele>
        <time>2011-08-30T08:25:21Z</time>
      </trkpt>
      <trkpt lat="41.69883" lon="8.78348">
        <ele>-0.82</ele>
        <time>2011-08-30T08:25:38Z</time>
      </trkpt>
      <trkpt lat="41.69887" lon="8.78351">
        <ele>-1.3</ele>
        <time>2011-08-30T08:25:56Z</time>
      </trkpt>
      <trkpt lat="41.69888" lon="8.78352">
        <ele>-0.82</ele>
        <time>2011-08-30T08:26:14Z</time>
      </trkpt>
      <trkpt lat="41.69892" lon="8.78356">
        <ele>-1.3</ele>
        <time>2011-08-30T08:26:32Z</time>
      </trkpt>
      <trkpt lat="41.69893" lon="8.78357">
        <ele>-4.67</ele>
        <time>2011-08-30T08:26:35Z</time>
      </trkpt>
      <trkpt lat="41.69894" lon="8.78358">
        <ele>-1.79</ele>
        <time>2011-08-30T08:26:36Z</time>
      </trkpt>
      <trkpt lat="41.69896" lon="8.78361">
        <ele>-6.59</ele>
        <time>2011-08-30T08:26:44Z</time>
      </trkpt>
      <trkpt lat="41.69896" lon="8.78362">
        <ele>0.62</ele>
        <time>2011-08-30T08:26:45Z</time>
      </trkpt>
      <trkpt lat="41.69896" lon="8.78362">
        <ele>1.1</ele>
        <time>2011-08-30T08:26:47Z</time>
      </trkpt>
      <trkpt lat="41.69896" lon="8.78362">
        <ele>-4.67</ele>
        <time>2011-08-30T08:26:48Z</time>
      </trkpt>
      <trkpt lat="41.69896" lon="8.78362">
        <ele>-3.71</ele>
        <time>2011-08-30T08:26:49Z</time>
      </trkpt>
      <trkpt lat="41.69897" lon="8.78363">
        <ele>-0.34</ele>
        <time>2011-08-30T08:26:51Z</time>
      </trkpt>
      <trkpt lat="41.69897" lon="8.78364">
        <ele>-0.34</ele>
        <time>2011-08-30T08:27:10Z</time>
      </trkpt>
      <trkpt lat="41.69899" lon="8.78367">
        <ele>-0.82</ele>
        <time>2011-08-30T08:27:28Z</time>
      </trkpt>
      <trkpt lat="41.699" lon="8.78368">
        <ele>-0.34</ele>
        <time>2011-08-30T08:27:52Z</time>
      </trkpt>
      <trkpt lat="41.69901" lon="8.7837">
        <ele>-0.82</ele>
        <time>2011-08-30T08:28:10Z</time>
      </trkpt>
      <trkpt lat="41.69902" lon="8.78371">
        <ele>-0.82</ele>
        <time>2011-08-30T08:28:37Z</time>
      </trkpt>
      <trkpt lat="41.69903" lon="8.78372">
        <ele>-2.75</ele>
        <time>2011-08-30T08:28:46Z</time>
      </trkpt>
      <trkpt lat="41.69903" lon="8.78372">
        <ele>-1.3</ele>
        <time>2011-08-30T08:28:48Z</time>
      </trkpt>
      <trkpt lat="41.69903" lon="8.78372">
        <ele>3.02</ele>
        <time>2011-08-30T08:28:52Z</time>
      </trkpt>
      <trkpt lat="41.69903" lon="8.78372">
        <ele>-0.34</ele>
        <time>2011-08-30T08:28:55Z</time>
      </trkpt>
      <trkpt lat="41.69903" lon="8.78372">
        <ele>-3.23</ele>
        <time>2011-08-30T08:28:59Z</time>
      </trkpt>
      <trkpt lat="41.69904" lon="8.78373">
        <ele>-0.34</ele>
        <time>2011-08-30T08:29:06Z</time>
      </trkpt>
      <trkpt lat="41.69905" lon="8.78374">
        <ele>-0.34</ele>
        <time>2011-08-30T08:29:48Z</time>
      </trkpt>
      <trkpt lat="41.69907" lon="8.78375">
        <ele>-0.34</ele>
        <time>2011-08-30T08:30:21Z</time>
      </trkpt>
      <trkpt lat="41.69909" lon="8.78376">
        <ele>-0.34</ele>
        <time>2011-08-30T08:31:07Z</time>
      </trkpt>
      <trkpt lat="41.69911" lon="8.78376">
        <ele>0.14</ele>
        <time>2011-08-30T08:31:31Z</time>
      </trkpt>
      <trkpt lat="41.69915" lon="8.78379">
        <ele>-0.82</ele>
        <time>2011-08-30T08:31:49Z</time>
      </trkpt>
      <trkpt lat="41.69922" lon="8.78395">
        <ele>-0.34</ele>
        <time>2011-08-30T08:32:09Z</time>
      </trkpt>
      <trkpt lat="41.69931" lon="8.78422">
        <ele>0.14</ele>
        <time>2011-08-30T08:32:27Z</time>
      </trkpt>
      <trkpt lat="41.69938" lon="8.78432">
        <ele>-0.34</ele>
        <time>2011-08-30T08:32:43Z</time>
      </trkpt>
      <trkpt lat="41.69946" lon="8.78424">
        <ele>0.14</ele>
        <time>2011-08-30T08:33:01Z</time>
      </trkpt>
      <trkpt lat="41.69948" lon="8.78416">
        <ele>-0.34</ele>
        <time>2011-08-30T08:33:10Z</time>
      </trkpt>
      <trkpt lat="41.69948" lon="8.78406">
        <ele>-0.34</ele>
        <time>2011-08-30T08:33:27Z</time>
      </trkpt>
      <trkpt lat="41.69948" lon="8.78406">
        <ele>-0.82</ele>
        <time>2011-08-30T08:33:34Z</time>
      </trkpt>
      <trkpt lat="41.69948" lon="8.78406">
        <ele>4.46</ele>
        <time>2011-08-30T11:32:03Z</time>
      </trkpt>
      <trkpt lat="41.69948" lon="8.78404">
        <ele>0.14</ele>
        <time>2011-08-30T11:32:13Z</time>
      </trkpt>
      <trkpt lat="41.69949" lon="8.78416">
        <ele>-0.34</ele>
        <time>2011-08-30T11:33:45Z</time>
      </trkpt>
      <trkpt lat="41.69947" lon="8.78426">
        <ele>-0.34</ele>
        <time>2011-08-30T11:34:04Z</time>
      </trkpt>
      <trkpt lat="41.69947" lon="8.78425">
        <ele>-0.82</ele>
        <time>2011-08-30T11:34:20Z</time>
      </trkpt>
      <trkpt lat="41.69945" lon="8.78424">
        <ele>-0.34</ele>
        <time>2011-08-30T11:34:31Z</time>
      </trkpt>
      <trkpt lat="41.69942" lon="8.78425">
        <ele>-0.34</ele>
        <time>2011-08-30T11:34:34Z</time>
      </trkpt>
      <trkpt lat="41.69924" lon="8.78431">
        <ele>-0.34</ele>
        <time>2011-08-30T11:34:52Z</time>
      </trkpt>
      <trkpt lat="41.69913" lon="8.78431">
        <ele>-0.34</ele>
        <time>2011-08-30T11:35:08Z</time>
      </trkpt>
      <trkpt lat="41.69909" lon="8.78431">
        <ele>-4.67</ele>
        <time>2011-08-30T11:35:12Z</time>
      </trkpt>
      <trkpt lat="41.69908" lon="8.78431">
        <ele>-2.75</ele>
        <time>2011-08-30T11:35:13Z</time>
      </trkpt>
      <trkpt lat="41.69907" lon="8.78432">
        <ele>0.62</ele>
        <time>2011-08-30T11:35:15Z</time>
      </trkpt>
      <trkpt lat="41.69899" lon="8.78433">
        <ele>-0.34</ele>
        <time>2011-08-30T11:35:28Z</time>
      </trkpt>
      <trkpt lat="41.69893" lon="8.78438">
        <ele>0.14</ele>
        <time>2011-08-30T11:36:03Z</time>
      </trkpt>
      <trkpt lat="41.69879" lon="8.78446">
        <ele>0.14</ele>
        <time>2011-08-30T11:36:28Z</time>
      </trkpt>
      <trkpt lat="41.69855" lon="8.78458">
        <ele>0.14</ele>
        <time>2011-08-30T11:36:45Z</time>
      </trkpt>
      <trkpt lat="41.69837" lon="8.78468">
        <ele>-0.34</ele>
        <time>2011-08-30T11:36:59Z</time>
      </trkpt>
      <trkpt lat="41.6983" lon="8.78469">
        <ele>-3.23</ele>
        <time>2011-08-30T11:37:04Z</time>
      </trkpt>
      <trkpt lat="41.69827" lon="8.7847">
        <ele>0.14</ele>
        <time>2011-08-30T11:37:06Z</time>
      </trkpt>
      <trkpt lat="41.69819" lon="8.7847">
        <ele>0.14</ele>
        <time>2011-08-30T11:37:12Z</time>
      </trkpt>
      <trkpt lat="41.69796" lon="8.7848">
        <ele>0.14</ele>
        <time>2011-08-30T11:37:28Z</time>
      </trkpt>
      <trkpt lat="41.6979" lon="8.78481">
        <ele>0.14</ele>
        <time>2011-08-30T11:37:32Z</time>
      </trkpt>
      <trkpt lat="41.69768" lon="8.78491">
        <ele>0.14</ele>
        <time>2011-08-30T11:37:47Z</time>
      </trkpt>
      <trkpt lat="41.69748" lon="8.78499">
        <ele>0.14</ele>
        <time>2011-08-30T11:38:01Z</time>
      </trkpt>
      <trkpt lat="41.69745" lon="8.78501">
        <ele>0.14</ele>
        <time>2011-08-30T11:38:03Z</time>
      </trkpt>
      <trkpt lat="41.69739" lon="8.78503">
        <ele>0.14</ele>
        <time>2011-08-30T11:38:07Z</time>
      </trkpt>
      <trkpt lat="41.69719" lon="8.78509">
        <ele>0.14</ele>
        <time>2011-08-30T11:38:21Z</time>
      </trkpt>
      <trkpt lat="41.69704" lon="8.78518">
        <ele>0.14</ele>
        <time>2011-08-30T11:38:36Z</time>
      </trkpt>
      <trkpt lat="41.69703" lon="8.78518">
        <ele>0.14</ele>
        <time>2011-08-30T11:38:37Z</time>
      </trkpt>
      <trkpt lat="41.6969" lon="8.78522">
        <ele>0.62</ele>
        <time>2011-08-30T11:38:52Z</time>
      </trkpt>
      <trkpt lat="41.69689" lon="8.78522">
        <ele>0.14</ele>
        <time>2011-08-30T11:38:53Z</time>
      </trkpt>
      <trkpt lat="41.69682" lon="8.78522">
        <ele>0.62</ele>
        <time>2011-08-30T11:39:00Z</time>
      </trkpt>
      <trkpt lat="41.69665" lon="8.78529">
        <ele>-0.34</ele>
        <time>2011-08-30T11:39:11Z</time>
      </trkpt>
      <trkpt lat="41.69663" lon="8.7853">
        <ele>0.62</ele>
        <time>2011-08-30T11:39:12Z</time>
      </trkpt>
      <trkpt lat="41.69638" lon="8.7854">
        <ele>0.62</ele>
        <time>2011-08-30T11:39:29Z</time>
      </trkpt>
      <trkpt lat="41.69628" lon="8.78544">
        <ele>0.62</ele>
        <time>2011-08-30T11:39:36Z</time>
      </trkpt>
      <trkpt lat="41.6961" lon="8.78553">
        <ele>-0.34</ele>
        <time>2011-08-30T11:39:48Z</time>
      </trkpt>
      <trkpt lat="41.69596" lon="8.78554">
        <ele>0.14</ele>
        <time>2011-08-30T11:40:02Z</time>
      </trkpt>
      <trkpt lat="41.6959" lon="8.78555">
        <ele>0.62</ele>
        <time>2011-08-30T11:40:08Z</time>
      </trkpt>
      <trkpt lat="41.69583" lon="8.78555">
        <ele>0.62</ele>
        <time>2011-08-30T11:40:14Z</time>
      </trkpt>
      <trkpt lat="41.69575" lon="8.78558">
        <ele>0.14</ele>
        <time>2011-08-30T11:40:19Z</time>
      </trkpt>
      <trkpt lat="41.69553" lon="8.78567">
        <ele>-0.34</ele>
        <time>2011-08-30T11:40:34Z</time>
      </trkpt>
      <trkpt lat="41.69538" lon="8.78571">
        <ele>0.14</ele>
        <time>2011-08-30T11:40:46Z</time>
      </trkpt>
      <trkpt lat="41.69521" lon="8.78585">
        <ele>-0.34</ele>
        <time>2011-08-30T11:40:58Z</time>
      </trkpt>
      <trkpt lat="41.69516" lon="8.78588">
        <ele>-0.34</ele>
        <time>2011-08-30T11:41:01Z</time>
      </trkpt>
      <trkpt lat="41.69504" lon="8.78596">
        <ele>0.14</ele>
        <time>2011-08-30T11:41:08Z</time>
      </trkpt>
      <trkpt lat="41.69488" lon="8.78607">
        <ele>-0.34</ele>
        <time>2011-08-30T11:41:17Z</time>
      </trkpt>
      <trkpt lat="41.69474" lon="8.78614">
        <ele>0.14</ele>
        <time>2011-08-30T11:41:25Z</time>
      </trkpt>
      <trkpt lat="41.69454" lon="8.78625">
        <ele>-0.34</ele>
        <time>2011-08-30T11:41:38Z</time>
      </trkpt>
      <trkpt lat="41.69436" lon="8.78637">
        <ele>0.14</ele>
        <time>2011-08-30T11:41:51Z</time>
      </trkpt>
      <trkpt lat="41.69428" lon="8.78638">
        <ele>0.14</ele>
        <time>2011-08-30T11:41:56Z</time>
      </trkpt>
      <trkpt lat="41.69408" lon="8.7865">
        <ele>-0.34</ele>
        <time>2011-08-30T11:42:09Z</time>
      </trkpt>
      <trkpt lat="41.69402" lon="8.78651">
        <ele>-0.34</ele>
        <time>2011-08-30T11:42:13Z</time>
      </trkpt>
      <trkpt lat="41.69387" lon="8.78656">
        <ele>0.14</ele>
        <time>2011-08-30T11:42:25Z</time>
      </trkpt>
      <trkpt lat="41.69379" lon="8.7866">
        <ele>-0.34</ele>
        <time>2011-08-30T11:42:30Z</time>
      </trkpt>
      <trkpt lat="41.6937" lon="8.78668">
        <ele>0.14</ele>
        <time>2011-08-30T11:42:36Z</time>
      </trkpt>
      <trkpt lat="41.69349" lon="8.7869">
        <ele>0.14</ele>
        <time>2011-08-30T11:42:51Z</time>
      </trkpt>
      <trkpt lat="41.69335" lon="8.78706">
        <ele>0.14</ele>
        <time>2011-08-30T11:43:01Z</time>
      </trkpt>
      <trkpt lat="41.69328" lon="8.78712">
        <ele>0.62</ele>
        <time>2011-08-30T11:43:05Z</time>
      </trkpt>
      <trkpt lat="41.69312" lon="8.78726">
        <ele>0.14</ele>
        <time>2011-08-30T11:43:19Z</time>
      </trkpt>
      <trkpt lat="41.69294" lon="8.78743">
        <ele>0.14</ele>
        <time>2011-08-30T11:43:32Z</time>
      </trkpt>
      <trkpt lat="41.69276" lon="8.78755">
        <ele>0.62</ele>
        <time>2011-08-30T11:43:44Z</time>
      </trkpt>
      <trkpt lat="41.69258" lon="8.78765">
        <ele>0.14</ele>
        <time>2011-08-30T11:43:57Z</time>
      </trkpt>
      <trkpt lat="41.69245" lon="8.78775">
        <ele>0.14</ele>
        <time>2011-08-30T11:44:09Z</time>
      </trkpt>
      <trkpt lat="41.69243" lon="8.78777">
        <ele>0.14</ele>
        <time>2011-08-30T11:44:12Z</time>
      </trkpt>
      <trkpt lat="41.69236" lon="8.78782">
        <ele>-0.34</ele>
        <time>2011-08-30T11:44:19Z</time>
      </trkpt>
      <trkpt lat="41.6923" lon="8.78794">
        <ele>0.14</ele>
        <time>2011-08-30T11:44:28Z</time>
      </trkpt>
      <trkpt lat="41.69223" lon="8.78809">
        <ele>-0.34</ele>
        <time>2011-08-30T11:44:37Z</time>
      </trkpt>
      <trkpt lat="41.69222" lon="8.78814">
        <ele>-0.82</ele>
        <time>2011-08-30T11:44:39Z</time>
      </trkpt>
      <trkpt lat="41.69221" lon="8.78837">
        <ele>-0.34</ele>
        <time>2011-08-30T11:44:49Z</time>
      </trkpt>
      <trkpt lat="41.69224" lon="8.78862">
        <ele>-0.34</ele>
        <time>2011-08-30T11:44:59Z</time>
      </trkpt>
      <trkpt lat="41.69226" lon="8.78893">
        <ele>-0.82</ele>
        <time>2011-08-30T11:45:12Z</time>
      </trkpt>
      <trkpt lat="41.69228" lon="8.78923">
        <ele>0.14</ele>
        <time>2011-08-30T11:45:28Z</time>
      </trkpt>
      <trkpt lat="41.6924" lon="8.78951">
        <ele>-0.34</ele>
        <time>2011-08-30T11:45:42Z</time>
      </trkpt>
      <trkpt lat="41.69241" lon="8.78979">
        <ele>-0.34</ele>
        <time>2011-08-30T11:45:53Z</time>
      </trkpt>
      <trkpt lat="41.69249" lon="8.79007">
        <ele>-0.34</ele>
        <time>2011-08-30T11:46:05Z</time>
      </trkpt>
      <trkpt lat="41.69255" lon="8.79034">
        <ele>-0.34</ele>
        <time>2011-08-30T11:46:16Z</time>
      </trkpt>
      <trkpt lat="41.69264" lon="8.79061">
        <ele>0.14</ele>
        <time>2011-08-30T11:46:28Z</time>
      </trkpt>
      <trkpt lat="41.69276" lon="8.79085">
        <ele>-0.34</ele>
        <time>2011-08-30T11:46:41Z</time>
      </trkpt>
      <trkpt lat="41.69285" lon="8.79105">
        <ele>0.62</ele>
        <time>2011-08-30T11:46:51Z</time>
      </trkpt>
      <trkpt lat="41.69294" lon="8.79125">
        <ele>-0.34</ele>
        <time>2011-08-30T11:47:01Z</time>
      </trkpt>
      <trkpt lat="41.69303" lon="8.79139">
        <ele>0.14</ele>
        <time>2011-08-30T11:47:09Z</time>
      </trkpt>
      <trkpt lat="41.69307" lon="8.79146">
        <ele>0.14</ele>
        <time>2011-08-30T11:47:13Z</time>
      </trkpt>
      <trkpt lat="41.69316" lon="8.79174">
        <ele>0.14</ele>
        <time>2011-08-30T11:47:26Z</time>
      </trkpt>
      <trkpt lat="41.69325" lon="8.79209">
        <ele>0.14</ele>
        <time>2011-08-30T11:47:41Z</time>
      </trkpt>
      <trkpt lat="41.69325" lon="8.79229">
        <ele>-0.34</ele>
        <time>2011-08-30T11:47:50Z</time>
      </trkpt>
      <trkpt lat="41.69326" lon="8.79262">
        <ele>-0.34</ele>
        <time>2011-08-30T11:48:03Z</time>
      </trkpt>
      <trkpt lat="41.69328" lon="8.7929">
        <ele>-0.34</ele>
        <time>2011-08-30T11:48:14Z</time>
      </trkpt>
      <trkpt lat="41.69324" lon="8.79313">
        <ele>-0.34</ele>
        <time>2011-08-30T11:48:28Z</time>
      </trkpt>
      <trkpt lat="41.69317" lon="8.79324">
        <ele>-0.34</ele>
        <time>2011-08-30T11:48:42Z</time>
      </trkpt>
      <trkpt lat="41.69313" lon="8.79327">
        <ele>0.62</ele>
        <time>2011-08-30T11:48:54Z</time>
      </trkpt>
      <trkpt lat="41.69311" lon="8.79331">
        <ele>0.14</ele>
        <time>2011-08-30T11:49:07Z</time>
      </trkpt>
      <trkpt lat="41.69311" lon="8.79335">
        <ele>0.14</ele>
        <time>2011-08-30T11:49:16Z</time>
      </trkpt>
      <trkpt lat="41.69309" lon="8.79343">
        <ele>0.62</ele>
        <time>2011-08-30T11:49:25Z</time>
      </trkpt>
      <trkpt lat="41.69307" lon="8.79346">
        <ele>0.14</ele>
        <time>2011-08-30T11:49:29Z</time>
      </trkpt>
      <trkpt lat="41.69304" lon="8.79359">
        <ele>0.14</ele>
        <time>2011-08-30T11:49:45Z</time>
      </trkpt>
      <trkpt lat="41.69299" lon="8.79368">
        <ele>0.14</ele>
        <time>2011-08-30T11:49:59Z</time>
      </trkpt>
      <trkpt lat="41.69284" lon="8.7938">
        <ele>0.14</ele>
        <time>2011-08-30T11:50:12Z</time>
      </trkpt>
      <trkpt lat="41.69283" lon="8.79382">
        <ele>0.62</ele>
        <time>2011-08-30T11:50:13Z</time>
      </trkpt>
      <trkpt lat="41.69279" lon="8.79401">
        <ele>-0.34</ele>
        <time>2011-08-30T11:50:24Z</time>
      </trkpt>
      <trkpt lat="41.69279" lon="8.79424">
        <ele>1.58</ele>
        <time>2011-08-30T11:50:34Z</time>
      </trkpt>
      <trkpt lat="41.6928" lon="8.79438">
        <ele>0.62</ele>
        <time>2011-08-30T11:50:43Z</time>
      </trkpt>
      <trkpt lat="41.69282" lon="8.79455">
        <ele>0.62</ele>
        <time>2011-08-30T11:50:56Z</time>
      </trkpt>
      <trkpt lat="41.69288" lon="8.79478">
        <ele>0.14</ele>
        <time>2011-08-30T11:51:08Z</time>
      </trkpt>
      <trkpt lat="41.69291" lon="8.79486">
        <ele>-1.3</ele>
        <time>2011-08-30T11:51:12Z</time>
      </trkpt>
      <trkpt lat="41.69304" lon="8.79508">
        <ele>0.14</ele>
        <time>2011-08-30T11:51:25Z</time>
      </trkpt>
      <trkpt lat="41.69312" lon="8.79541">
        <ele>0.14</ele>
        <time>2011-08-30T11:51:39Z</time>
      </trkpt>
      <trkpt lat="41.69319" lon="8.7957">
        <ele>0.14</ele>
        <time>2011-08-30T11:51:51Z</time>
      </trkpt>
      <trkpt lat="41.69329" lon="8.79601">
        <ele>0.62</ele>
        <time>2011-08-30T11:52:05Z</time>
      </trkpt>
      <trkpt lat="41.69334" lon="8.79624">
        <ele>0.62</ele>
        <time>2011-08-30T11:52:16Z</time>
      </trkpt>
      <trkpt lat="41.69334" lon="8.79659">
        <ele>0.14</ele>
        <time>2011-08-30T11:52:33Z</time>
      </trkpt>
      <trkpt lat="41.69323" lon="8.79681">
        <ele>0.62</ele>
        <time>2011-08-30T11:52:46Z</time>
      </trkpt>
      <trkpt lat="41.69314" lon="8.79707">
        <ele>1.1</ele>
        <time>2011-08-30T11:52:59Z</time>
      </trkpt>
      <trkpt lat="41.69302" lon="8.79721">
        <ele>0.62</ele>
        <time>2011-08-30T11:53:12Z</time>
      </trkpt>
      <trkpt lat="41.69297" lon="8.79729">
        <ele>0.62</ele>
        <time>2011-08-30T11:53:17Z</time>
      </trkpt>
      <trkpt lat="41.69288" lon="8.79739">
        <ele>0.62</ele>
        <time>2011-08-30T11:53:24Z</time>
      </trkpt>
      <trkpt lat="41.69284" lon="8.79743">
        <ele>0.62</ele>
        <time>2011-08-30T11:53:26Z</time>
      </trkpt>
      <trkpt lat="41.69269" lon="8.79763">
        <ele>0.14</ele>
        <time>2011-08-30T11:53:38Z</time>
      </trkpt>
      <trkpt lat="41.69266" lon="8.79784">
        <ele>-0.34</ele>
        <time>2011-08-30T11:53:48Z</time>
      </trkpt>
      <trkpt lat="41.69267" lon="8.79809">
        <ele>0.14</ele>
        <time>2011-08-30T11:54:00Z</time>
      </trkpt>
      <trkpt lat="41.69269" lon="8.79834">
        <ele>0.14</ele>
        <time>2011-08-30T11:54:11Z</time>
      </trkpt>
      <trkpt lat="41.69269" lon="8.79864">
        <ele>0.14</ele>
        <time>2011-08-30T11:54:24Z</time>
      </trkpt>
      <trkpt lat="41.69266" lon="8.79901">
        <ele>0.14</ele>
        <time>2011-08-30T11:54:39Z</time>
      </trkpt>
      <trkpt lat="41.69259" lon="8.79928">
        <ele>0.62</ele>
        <time>2011-08-30T11:54:51Z</time>
      </trkpt>
      <trkpt lat="41.69248" lon="8.79954">
        <ele>0.14</ele>
        <time>2011-08-30T11:55:03Z</time>
      </trkpt>
      <trkpt lat="41.69247" lon="8.79958">
        <ele>0.14</ele>
        <time>2011-08-30T11:55:05Z</time>
      </trkpt>
      <trkpt lat="41.69236" lon="8.79974">
        <ele>0.14</ele>
        <time>2011-08-30T11:55:17Z</time>
      </trkpt>
      <trkpt lat="41.69235" lon="8.80003">
        <ele>0.62</ele>
        <time>2011-08-30T11:55:30Z</time>
      </trkpt>
      <trkpt lat="41.69238" lon="8.80039">
        <ele>0.62</ele>
        <time>2011-08-30T11:55:45Z</time>
      </trkpt>
      <trkpt lat="41.69238" lon="8.80045">
        <ele>0.62</ele>
        <time>2011-08-30T11:55:47Z</time>
      </trkpt>
      <trkpt lat="41.69246" lon="8.80054">
        <ele>0.62</ele>
        <time>2011-08-30T11:55:55Z</time>
      </trkpt>
      <trkpt lat="41.69272" lon="8.80059">
        <ele>0.14</ele>
        <time>2011-08-30T11:56:10Z</time>
      </trkpt>
      <trkpt lat="41.69291" lon="8.80066">
        <ele>0.62</ele>
        <time>2011-08-30T11:56:22Z</time>
      </trkpt>
      <trkpt lat="41.69295" lon="8.80067">
        <ele>1.1</ele>
        <time>2011-08-30T11:56:24Z</time>
      </trkpt>
      <trkpt lat="41.69307" lon="8.80074">
        <ele>-1.3</ele>
        <time>2011-08-30T11:56:33Z</time>
      </trkpt>
      <trkpt lat="41.6931" lon="8.80077">
        <ele>0.62</ele>
        <time>2011-08-30T11:56:35Z</time>
      </trkpt>
      <trkpt lat="41.69314" lon="8.80079">
        <ele>-0.82</ele>
        <time>2011-08-30T11:56:38Z</time>
      </trkpt>
      <trkpt lat="41.69322" lon="8.8009">
        <ele>2.54</ele>
        <time>2011-08-30T11:56:45Z</time>
      </trkpt>
      <trkpt lat="41.69323" lon="8.80092">
        <ele>2.54</ele>
        <time>2011-08-30T11:56:46Z</time>
      </trkpt>
      <trkpt lat="41.69326" lon="8.80108">
        <ele>1.58</ele>
        <time>2011-08-30T11:56:58Z</time>
      </trkpt>
      <trkpt lat="41.69321" lon="8.80117">
        <ele>2.06</ele>
        <time>2011-08-30T11:57:12Z</time>
      </trkpt>
      <trkpt lat="41.69317" lon="8.80123">
        <ele>1.1</ele>
        <time>2011-08-30T11:57:24Z</time>
      </trkpt>
      <trkpt lat="41.69315" lon="8.80126">
        <ele>0.62</ele>
        <time>2011-08-30T11:57:37Z</time>
      </trkpt>
      <trkpt lat="41.6931" lon="8.80128">
        <ele>1.1</ele>
        <time>2011-08-30T11:57:47Z</time>
      </trkpt>
      <trkpt lat="41.69303" lon="8.80129">
        <ele>1.1</ele>
        <time>2011-08-30T11:57:53Z</time>
      </trkpt>
      <trkpt lat="41.69298" lon="8.80132">
        <ele>0.62</ele>
        <time>2011-08-30T11:57:56Z</time>
      </trkpt>
      <trkpt lat="41.69287" lon="8.80147">
        <ele>0.62</ele>
        <time>2011-08-30T11:58:05Z</time>
      </trkpt>
      <trkpt lat="41.6928" lon="8.80174">
        <ele>0.62</ele>
        <time>2011-08-30T11:58:18Z</time>
      </trkpt>
      <trkpt lat="41.69277" lon="8.80205">
        <ele>0.62</ele>
        <time>2011-08-30T11:58:31Z</time>
      </trkpt>
      <trkpt lat="41.69276" lon="8.80224">
        <ele>0.62</ele>
        <time>2011-08-30T11:58:41Z</time>
      </trkpt>
      <trkpt lat="41.69275" lon="8.80248">
        <ele>1.1</ele>
        <time>2011-08-30T11:58:52Z</time>
      </trkpt>
      <trkpt lat="41.6927" lon="8.80278">
        <ele>0.62</ele>
        <time>2011-08-30T11:59:06Z</time>
      </trkpt>
      <trkpt lat="41.69263" lon="8.80312">
        <ele>1.1</ele>
        <time>2011-08-30T11:59:20Z</time>
      </trkpt>
      <trkpt lat="41.69262" lon="8.8034">
        <ele>1.1</ele>
        <time>2011-08-30T11:59:33Z</time>
      </trkpt>
      <trkpt lat="41.69263" lon="8.8036">
        <ele>1.58</ele>
        <time>2011-08-30T11:59:42Z</time>
      </trkpt>
      <trkpt lat="41.69262" lon="8.80367">
        <ele>1.1</ele>
        <time>2011-08-30T11:59:46Z</time>
      </trkpt>
      <trkpt lat="41.69262" lon="8.80373">
        <ele>0.62</ele>
        <time>2011-08-30T11:59:50Z</time>
      </trkpt>
      <trkpt lat="41.69256" lon="8.804">
        <ele>1.1</ele>
        <time>2011-08-30T12:00:05Z</time>
      </trkpt>
      <trkpt lat="41.69254" lon="8.80414">
        <ele>1.1</ele>
        <time>2011-08-30T12:00:12Z</time>
      </trkpt>
      <trkpt lat="41.69252" lon="8.80445">
        <ele>1.1</ele>
        <time>2011-08-30T12:00:26Z</time>
      </trkpt>
      <trkpt lat="41.6925" lon="8.8047">
        <ele>1.1</ele>
        <time>2011-08-30T12:00:40Z</time>
      </trkpt>
      <trkpt lat="41.69248" lon="8.80494">
        <ele>1.1</ele>
        <time>2011-08-30T12:00:53Z</time>
      </trkpt>
      <trkpt lat="41.69244" lon="8.80516">
        <ele>1.1</ele>
        <time>2011-08-30T12:01:05Z</time>
      </trkpt>
      <trkpt lat="41.69237" lon="8.80529">
        <ele>1.1</ele>
        <time>2011-08-30T12:01:14Z</time>
      </trkpt>
      <trkpt lat="41.69231" lon="8.80552">
        <ele>0.62</ele>
        <time>2011-08-30T12:01:29Z</time>
      </trkpt>
      <trkpt lat="41.69228" lon="8.80578">
        <ele>1.58</ele>
        <time>2011-08-30T12:01:40Z</time>
      </trkpt>
      <trkpt lat="41.69226" lon="8.80607">
        <ele>1.1</ele>
        <time>2011-08-30T12:01:54Z</time>
      </trkpt>
      <trkpt lat="41.69223" lon="8.80628">
        <ele>1.1</ele>
        <time>2011-08-30T12:02:04Z</time>
      </trkpt>
      <trkpt lat="41.69222" lon="8.80655">
        <ele>1.1</ele>
        <time>2011-08-30T12:02:17Z</time>
      </trkpt>
      <trkpt lat="41.69221" lon="8.80679">
        <ele>1.58</ele>
        <time>2011-08-30T12:02:29Z</time>
      </trkpt>
      <trkpt lat="41.69219" lon="8.80707">
        <ele>1.1</ele>
        <time>2011-08-30T12:02:42Z</time>
      </trkpt>
      <trkpt lat="41.69216" lon="8.8073">
        <ele>1.1</ele>
        <time>2011-08-30T12:02:53Z</time>
      </trkpt>
      <trkpt lat="41.69215" lon="8.80747">
        <ele>1.1</ele>
        <time>2011-08-30T12:03:01Z</time>
      </trkpt>
      <trkpt lat="41.69214" lon="8.80756">
        <ele>1.1</ele>
        <time>2011-08-30T12:03:06Z</time>
      </trkpt>
      <trkpt lat="41.69212" lon="8.80779">
        <ele>1.1</ele>
        <time>2011-08-30T12:03:18Z</time>
      </trkpt>
      <trkpt lat="41.69208" lon="8.80813">
        <ele>1.58</ele>
        <time>2011-08-30T12:03:34Z</time>
      </trkpt>
      <trkpt lat="41.69207" lon="8.80836">
        <ele>1.1</ele>
        <time>2011-08-30T12:03:44Z</time>
      </trkpt>
      <trkpt lat="41.69205" lon="8.80855">
        <ele>0.14</ele>
        <time>2011-08-30T12:03:58Z</time>
      </trkpt>
      <trkpt lat="41.692" lon="8.80867">
        <ele>2.06</ele>
        <time>2011-08-30T12:04:11Z</time>
      </trkpt>
      <trkpt lat="41.69195" lon="8.80872">
        <ele>2.06</ele>
        <time>2011-08-30T12:04:17Z</time>
      </trkpt>
      <trkpt lat="41.6919" lon="8.80879">
        <ele>1.58</ele>
        <time>2011-08-30T12:04:30Z</time>
      </trkpt>
      <trkpt lat="41.69188" lon="8.80887">
        <ele>1.58</ele>
        <time>2011-08-30T12:04:42Z</time>
      </trkpt>
      <trkpt lat="41.69188" lon="8.80887">
        <ele>1.58</ele>
        <time>2011-08-30T12:04:43Z</time>
      </trkpt>
      <trkpt lat="41.6919" lon="8.80904">
        <ele>2.06</ele>
        <time>2011-08-30T12:04:53Z</time>
      </trkpt>
      <trkpt lat="41.69192" lon="8.80925">
        <ele>1.58</ele>
        <time>2011-08-30T12:05:07Z</time>
      </trkpt>
      <trkpt lat="41.69194" lon="8.80952">
        <ele>2.06</ele>
        <time>2011-08-30T12:05:21Z</time>
      </trkpt>
      <trkpt lat="41.69197" lon="8.80967">
        <ele>2.06</ele>
        <time>2011-08-30T12:05:29Z</time>
      </trkpt>
      <trkpt lat="41.69199" lon="8.80976">
        <ele>-2.75</ele>
        <time>2011-08-30T12:05:33Z</time>
      </trkpt>
      <trkpt lat="41.692" lon="8.80978">
        <ele>3.02</ele>
        <time>2011-08-30T12:05:35Z</time>
      </trkpt>
      <trkpt lat="41.69204" lon="8.80998">
        <ele>1.58</ele>
        <time>2011-08-30T12:05:46Z</time>
      </trkpt>
      <trkpt lat="41.69202" lon="8.81021">
        <ele>1.1</ele>
        <time>2011-08-30T12:05:56Z</time>
      </trkpt>
      <trkpt lat="41.69197" lon="8.81049">
        <ele>2.06</ele>
        <time>2011-08-30T12:06:08Z</time>
      </trkpt>
      <trkpt lat="41.69191" lon="8.81078">
        <ele>1.58</ele>
        <time>2011-08-30T12:06:21Z</time>
      </trkpt>
      <trkpt lat="41.69188" lon="8.81106">
        <ele>1.58</ele>
        <time>2011-08-30T12:06:33Z</time>
      </trkpt>
      <trkpt lat="41.69184" lon="8.81135">
        <ele>2.06</ele>
        <time>2011-08-30T12:06:46Z</time>
      </trkpt>
      <trkpt lat="41.69183" lon="8.81158">
        <ele>1.58</ele>
        <time>2011-08-30T12:06:57Z</time>
      </trkpt>
      <trkpt lat="41.69182" lon="8.81181">
        <ele>2.06</ele>
        <time>2011-08-30T12:07:08Z</time>
      </trkpt>
      <trkpt lat="41.69182" lon="8.81208">
        <ele>2.06</ele>
        <time>2011-08-30T12:07:21Z</time>
      </trkpt>
      <trkpt lat="41.69183" lon="8.81238">
        <ele>2.06</ele>
        <time>2011-08-30T12:07:35Z</time>
      </trkpt>
      <trkpt lat="41.69183" lon="8.8124">
        <ele>2.06</ele>
        <time>2011-08-30T12:07:37Z</time>
      </trkpt>
      <trkpt lat="41.69182" lon="8.81251">
        <ele>2.06</ele>
        <time>2011-08-30T12:07:43Z</time>
      </trkpt>
      <trkpt lat="41.69178" lon="8.81272">
        <ele>2.54</ele>
        <time>2011-08-30T12:07:53Z</time>
      </trkpt>
      <trkpt lat="41.69171" lon="8.81298">
        <ele>2.06</ele>
        <time>2011-08-30T12:08:06Z</time>
      </trkpt>
      <trkpt lat="41.69171" lon="8.81322">
        <ele>2.54</ele>
        <time>2011-08-30T12:08:18Z</time>
      </trkpt>
      <trkpt lat="41.69171" lon="8.81345">
        <ele>2.06</ele>
        <time>2011-08-30T12:08:31Z</time>
      </trkpt>
      <trkpt lat="41.69173" lon="8.81369">
        <ele>2.54</ele>
        <time>2011-08-30T12:08:42Z</time>
      </trkpt>
      <trkpt lat="41.69172" lon="8.81394">
        <ele>2.54</ele>
        <time>2011-08-30T12:08:54Z</time>
      </trkpt>
      <trkpt lat="41.69176" lon="8.81418">
        <ele>2.54</ele>
        <time>2011-08-30T12:09:05Z</time>
      </trkpt>
      <trkpt lat="41.69182" lon="8.81444">
        <ele>2.54</ele>
        <time>2011-08-30T12:09:17Z</time>
      </trkpt>
      <trkpt lat="41.69192" lon="8.81466">
        <ele>2.54</ele>
        <time>2011-08-30T12:09:29Z</time>
      </trkpt>
      <trkpt lat="41.69198" lon="8.81487">
        <ele>2.54</ele>
        <time>2011-08-30T12:09:39Z</time>
      </trkpt>
      <trkpt lat="41.69199" lon="8.81498">
        <ele>2.54</ele>
        <time>2011-08-30T12:09:44Z</time>
      </trkpt>
      <trkpt lat="41.692" lon="8.81508">
        <ele>2.54</ele>
        <time>2011-08-30T12:09:49Z</time>
      </trkpt>
      <trkpt lat="41.69199" lon="8.81533">
        <ele>2.54</ele>
        <time>2011-08-30T12:10:00Z</time>
      </trkpt>
      <trkpt lat="41.69199" lon="8.81564">
        <ele>2.06</ele>
        <time>2011-08-30T12:10:14Z</time>
      </trkpt>
      <trkpt lat="41.69197" lon="8.81589">
        <ele>2.54</ele>
        <time>2011-08-30T12:10:25Z</time>
      </trkpt>
      <trkpt lat="41.69194" lon="8.81607">
        <ele>2.54</ele>
        <time>2011-08-30T12:10:33Z</time>
      </trkpt>
      <trkpt lat="41.69193" lon="8.81617">
        <ele>3.02</ele>
        <time>2011-08-30T12:10:38Z</time>
      </trkpt>
      <trkpt lat="41.69192" lon="8.8165">
        <ele>2.54</ele>
        <time>2011-08-30T12:10:53Z</time>
      </trkpt>
      <trkpt lat="41.69187" lon="8.81679">
        <ele>2.54</ele>
        <time>2011-08-30T12:11:06Z</time>
      </trkpt>
      <trkpt lat="41.6918" lon="8.81697">
        <ele>3.02</ele>
        <time>2011-08-30T12:11:16Z</time>
      </trkpt>
      <trkpt lat="41.69172" lon="8.81721">
        <ele>2.54</ele>
        <time>2011-08-30T12:11:28Z</time>
      </trkpt>
      <trkpt lat="41.69164" lon="8.81748">
        <ele>3.5</ele>
        <time>2011-08-30T12:11:41Z</time>
      </trkpt>
      <trkpt lat="41.69156" lon="8.81764">
        <ele>3.5</ele>
        <time>2011-08-30T12:11:51Z</time>
      </trkpt>
      <trkpt lat="41.69149" lon="8.81771">
        <ele>3.98</ele>
        <time>2011-08-30T12:11:57Z</time>
      </trkpt>
      <trkpt lat="41.6914" lon="8.81786">
        <ele>3.02</ele>
        <time>2011-08-30T12:12:07Z</time>
      </trkpt>
      <trkpt lat="41.69136" lon="8.8181">
        <ele>2.54</ele>
        <time>2011-08-30T12:12:19Z</time>
      </trkpt>
      <trkpt lat="41.69132" lon="8.81837">
        <ele>3.02</ele>
        <time>2011-08-30T12:12:32Z</time>
      </trkpt>
      <trkpt lat="41.69127" lon="8.81861">
        <ele>3.02</ele>
        <time>2011-08-30T12:12:43Z</time>
      </trkpt>
      <trkpt lat="41.69123" lon="8.81882">
        <ele>3.02</ele>
        <time>2011-08-30T12:12:55Z</time>
      </trkpt>
      <trkpt lat="41.69119" lon="8.81902">
        <ele>2.54</ele>
        <time>2011-08-30T12:13:05Z</time>
      </trkpt>
      <trkpt lat="41.69113" lon="8.81935">
        <ele>3.02</ele>
        <time>2011-08-30T12:13:21Z</time>
      </trkpt>
      <trkpt lat="41.69109" lon="8.81964">
        <ele>2.54</ele>
        <time>2011-08-30T12:13:35Z</time>
      </trkpt>
      <trkpt lat="41.69105" lon="8.81993">
        <ele>3.5</ele>
        <time>2011-08-30T12:13:48Z</time>
      </trkpt>
      <trkpt lat="41.69103" lon="8.82023">
        <ele>3.02</ele>
        <time>2011-08-30T12:14:01Z</time>
      </trkpt>
      <trkpt lat="41.69099" lon="8.82048">
        <ele>3.5</ele>
        <time>2011-08-30T12:14:13Z</time>
      </trkpt>
      <trkpt lat="41.69098" lon="8.82075">
        <ele>3.5</ele>
        <time>2011-08-30T12:14:25Z</time>
      </trkpt>
      <trkpt lat="41.69094" lon="8.82095">
        <ele>3.5</ele>
        <time>2011-08-30T12:14:34Z</time>
      </trkpt>
      <trkpt lat="41.6909" lon="8.82108">
        <ele>3.02</ele>
        <time>2011-08-30T12:14:41Z</time>
      </trkpt>
      <trkpt lat="41.69087" lon="8.82142">
        <ele>3.02</ele>
        <time>2011-08-30T12:14:56Z</time>
      </trkpt>
      <trkpt lat="41.69085" lon="8.82154">
        <ele>3.5</ele>
        <time>2011-08-30T12:15:01Z</time>
      </trkpt>
      <trkpt lat="41.69081" lon="8.82179">
        <ele>3.5</ele>
        <time>2011-08-30T12:15:12Z</time>
      </trkpt>
      <trkpt lat="41.69079" lon="8.8219">
        <ele>3.02</ele>
        <time>2011-08-30T12:15:17Z</time>
      </trkpt>
      <trkpt lat="41.69074" lon="8.82217">
        <ele>3.02</ele>
        <time>2011-08-30T12:15:31Z</time>
      </trkpt>
      <trkpt lat="41.69073" lon="8.82244">
        <ele>3.5</ele>
        <time>2011-08-30T12:15:43Z</time>
      </trkpt>
      <trkpt lat="41.69074" lon="8.82273">
        <ele>3.02</ele>
        <time>2011-08-30T12:15:57Z</time>
      </trkpt>
      <trkpt lat="41.69072" lon="8.82298">
        <ele>3.5</ele>
        <time>2011-08-30T12:16:09Z</time>
      </trkpt>
      <trkpt lat="41.69071" lon="8.82305">
        <ele>3.5</ele>
        <time>2011-08-30T12:16:13Z</time>
      </trkpt>
      <trkpt lat="41.6907" lon="8.82317">
        <ele>3.02</ele>
        <time>2011-08-30T12:16:20Z</time>
      </trkpt>
      <trkpt lat="41.69067" lon="8.82329">
        <ele>3.02</ele>
        <time>2011-08-30T12:16:26Z</time>
      </trkpt>
      <trkpt lat="41.69065" lon="8.82359">
        <ele>3.02</ele>
        <time>2011-08-30T12:16:40Z</time>
      </trkpt>
      <trkpt lat="41.69063" lon="8.82388">
        <ele>3.5</ele>
        <time>2011-08-30T12:16:54Z</time>
      </trkpt>
      <trkpt lat="41.69066" lon="8.82415">
        <ele>3.5</ele>
        <time>2011-08-30T12:17:07Z</time>
      </trkpt>
      <trkpt lat="41.69061" lon="8.8244">
        <ele>3.5</ele>
        <time>2011-08-30T12:17:20Z</time>
      </trkpt>
      <trkpt lat="41.6906" lon="8.82441">
        <ele>3.5</ele>
        <time>2011-08-30T12:17:21Z</time>
      </trkpt>
      <trkpt lat="41.69053" lon="8.82454">
        <ele>3.02</ele>
        <time>2011-08-30T12:17:31Z</time>
      </trkpt>
      <trkpt lat="41.69051" lon="8.82456">
        <ele>3.02</ele>
        <time>2011-08-30T12:17:33Z</time>
      </trkpt>
      <trkpt lat="41.69047" lon="8.82476">
        <ele>3.5</ele>
        <time>2011-08-30T12:17:45Z</time>
      </trkpt>
      <trkpt lat="41.69045" lon="8.82491">
        <ele>3.5</ele>
        <time>2011-08-30T12:17:53Z</time>
      </trkpt>
      <trkpt lat="41.69044" lon="8.82499">
        <ele>3.5</ele>
        <time>2011-08-30T12:17:57Z</time>
      </trkpt>
      <trkpt lat="41.69042" lon="8.82528">
        <ele>3.5</ele>
        <time>2011-08-30T12:18:11Z</time>
      </trkpt>
      <trkpt lat="41.69037" lon="8.82548">
        <ele>3.5</ele>
        <time>2011-08-30T12:18:20Z</time>
      </trkpt>
      <trkpt lat="41.69035" lon="8.82558">
        <ele>3.02</ele>
        <time>2011-08-30T12:18:26Z</time>
      </trkpt>
      <trkpt lat="41.6903" lon="8.82582">
        <ele>3.02</ele>
        <time>2011-08-30T12:18:41Z</time>
      </trkpt>
      <trkpt lat="41.6903" lon="8.82609">
        <ele>3.02</ele>
        <time>2011-08-30T12:18:55Z</time>
      </trkpt>
      <trkpt lat="41.69032" lon="8.82629">
        <ele>3.5</ele>
        <time>2011-08-30T12:19:03Z</time>
      </trkpt>
      <trkpt lat="41.69033" lon="8.82652">
        <ele>3.02</ele>
        <time>2011-08-30T12:19:15Z</time>
      </trkpt>
      <trkpt lat="41.69036" lon="8.82675">
        <ele>2.54</ele>
        <time>2011-08-30T12:19:27Z</time>
      </trkpt>
      <trkpt lat="41.69037" lon="8.82698">
        <ele>3.02</ele>
        <time>2011-08-30T12:19:40Z</time>
      </trkpt>
      <trkpt lat="41.69036" lon="8.82706">
        <ele>3.02</ele>
        <time>2011-08-30T12:19:45Z</time>
      </trkpt>
      <trkpt lat="41.69036" lon="8.82719">
        <ele>3.5</ele>
        <time>2011-08-30T12:19:56Z</time>
      </trkpt>
      <trkpt lat="41.69036" lon="8.8274">
        <ele>3.02</ele>
        <time>2011-08-30T12:20:10Z</time>
      </trkpt>
      <trkpt lat="41.69036" lon="8.82755">
        <ele>3.98</ele>
        <time>2011-08-30T12:20:20Z</time>
      </trkpt>
      <trkpt lat="41.69036" lon="8.82768">
        <ele>3.02</ele>
        <time>2011-08-30T12:20:32Z</time>
      </trkpt>
      <trkpt lat="41.69034" lon="8.82784">
        <ele>2.54</ele>
        <time>2011-08-30T12:20:42Z</time>
      </trkpt>
      <trkpt lat="41.69028" lon="8.82794">
        <ele>3.02</ele>
        <time>2011-08-30T12:20:53Z</time>
      </trkpt>
      <trkpt lat="41.69028" lon="8.82795">
        <ele>3.02</ele>
        <time>2011-08-30T12:20:54Z</time>
      </trkpt>
      <trkpt lat="41.69025" lon="8.82798">
        <ele>3.02</ele>
        <time>2011-08-30T12:20:58Z</time>
      </trkpt>
      <trkpt lat="41.6902" lon="8.82812">
        <ele>3.02</ele>
        <time>2011-08-30T12:21:07Z</time>
      </trkpt>
      <trkpt lat="41.69018" lon="8.82837">
        <ele>3.02</ele>
        <time>2011-08-30T12:21:22Z</time>
      </trkpt>
      <trkpt lat="41.69019" lon="8.82863">
        <ele>2.54</ele>
        <time>2011-08-30T12:21:35Z</time>
      </trkpt>
      <trkpt lat="41.6902" lon="8.82889">
        <ele>3.02</ele>
        <time>2011-08-30T12:21:47Z</time>
      </trkpt>
      <trkpt lat="41.69022" lon="8.82915">
        <ele>3.02</ele>
        <time>2011-08-30T12:22:00Z</time>
      </trkpt>
      <trkpt lat="41.69025" lon="8.82942">
        <ele>3.02</ele>
        <time>2011-08-30T12:22:13Z</time>
      </trkpt>
      <trkpt lat="41.69024" lon="8.82977">
        <ele>2.54</ele>
        <time>2011-08-30T12:22:28Z</time>
      </trkpt>
      <trkpt lat="41.69021" lon="8.83001">
        <ele>2.54</ele>
        <time>2011-08-30T12:22:39Z</time>
      </trkpt>
      <trkpt lat="41.69017" lon="8.8303">
        <ele>2.54</ele>
        <time>2011-08-30T12:22:54Z</time>
      </trkpt>
      <trkpt lat="41.69012" lon="8.83058">
        <ele>2.54</ele>
        <time>2011-08-30T12:23:08Z</time>
      </trkpt>
      <trkpt lat="41.69008" lon="8.83089">
        <ele>2.54</ele>
        <time>2011-08-30T12:23:21Z</time>
      </trkpt>
      <trkpt lat="41.69004" lon="8.83114">
        <ele>2.54</ele>
        <time>2011-08-30T12:23:32Z</time>
      </trkpt>
      <trkpt lat="41.69002" lon="8.83139">
        <ele>2.54</ele>
        <time>2011-08-30T12:23:44Z</time>
      </trkpt>
      <trkpt lat="41.68998" lon="8.83165">
        <ele>2.54</ele>
        <time>2011-08-30T12:23:56Z</time>
      </trkpt>
      <trkpt lat="41.69001" lon="8.83185">
        <ele>3.02</ele>
        <time>2011-08-30T12:24:06Z</time>
      </trkpt>
      <trkpt lat="41.68999" lon="8.83207">
        <ele>2.54</ele>
        <time>2011-08-30T12:24:17Z</time>
      </trkpt>
      <trkpt lat="41.68996" lon="8.83232">
        <ele>2.54</ele>
        <time>2011-08-30T12:24:30Z</time>
      </trkpt>
      <trkpt lat="41.68992" lon="8.83255">
        <ele>2.06</ele>
        <time>2011-08-30T12:24:41Z</time>
      </trkpt>
      <trkpt lat="41.68988" lon="8.83279">
        <ele>2.54</ele>
        <time>2011-08-30T12:24:53Z</time>
      </trkpt>
      <trkpt lat="41.68986" lon="8.83282">
        <ele>2.54</ele>
        <time>2011-08-30T12:25:07Z</time>
      </trkpt>
      <trkpt lat="41.68984" lon="8.83281">
        <ele>2.54</ele>
        <time>2011-08-30T12:25:20Z</time>
      </trkpt>
      <trkpt lat="41.68986" lon="8.83296">
        <ele>2.06</ele>
        <time>2011-08-30T12:25:31Z</time>
      </trkpt>
      <trkpt lat="41.68987" lon="8.83334">
        <ele>1.58</ele>
        <time>2011-08-30T12:25:49Z</time>
      </trkpt>
      <trkpt lat="41.68985" lon="8.83359">
        <ele>2.06</ele>
        <time>2011-08-30T12:26:00Z</time>
      </trkpt>
      <trkpt lat="41.68979" lon="8.83391">
        <ele>2.06</ele>
        <time>2011-08-30T12:26:15Z</time>
      </trkpt>
      <trkpt lat="41.68974" lon="8.83415">
        <ele>2.06</ele>
        <time>2011-08-30T12:26:28Z</time>
      </trkpt>
      <trkpt lat="41.68968" lon="8.83446">
        <ele>2.06</ele>
        <time>2011-08-30T12:26:43Z</time>
      </trkpt>
      <trkpt lat="41.68968" lon="8.83448">
        <ele>1.58</ele>
        <time>2011-08-30T12:26:44Z</time>
      </trkpt>
      <trkpt lat="41.68965" lon="8.83481">
        <ele>2.54</ele>
        <time>2011-08-30T12:26:59Z</time>
      </trkpt>
      <trkpt lat="41.68963" lon="8.83509">
        <ele>2.06</ele>
        <time>2011-08-30T12:27:12Z</time>
      </trkpt>
      <trkpt lat="41.6896" lon="8.8353">
        <ele>2.06</ele>
        <time>2011-08-30T12:27:23Z</time>
      </trkpt>
      <trkpt lat="41.68957" lon="8.8355">
        <ele>2.06</ele>
        <time>2011-08-30T12:27:34Z</time>
      </trkpt>
      <trkpt lat="41.68953" lon="8.83578">
        <ele>2.06</ele>
        <time>2011-08-30T12:27:47Z</time>
      </trkpt>
      <trkpt lat="41.68954" lon="8.83604">
        <ele>2.06</ele>
        <time>2011-08-30T12:27:59Z</time>
      </trkpt>
      <trkpt lat="41.6895" lon="8.83626">
        <ele>2.06</ele>
        <time>2011-08-30T12:28:11Z</time>
      </trkpt>
      <trkpt lat="41.68941" lon="8.83648">
        <ele>2.06</ele>
        <time>2011-08-30T12:28:24Z</time>
      </trkpt>
      <trkpt lat="41.68937" lon="8.83671">
        <ele>2.06</ele>
        <time>2011-08-30T12:28:36Z</time>
      </trkpt>
      <trkpt lat="41.68932" lon="8.83702">
        <ele>2.06</ele>
        <time>2011-08-30T12:28:51Z</time>
      </trkpt>
      <trkpt lat="41.6893" lon="8.83732">
        <ele>1.58</ele>
        <time>2011-08-30T12:29:05Z</time>
      </trkpt>
      <trkpt lat="41.68929" lon="8.83743">
        <ele>2.06</ele>
        <time>2011-08-30T12:29:10Z</time>
      </trkpt>
      <trkpt lat="41.68926" lon="8.83765">
        <ele>2.06</ele>
        <time>2011-08-30T12:29:24Z</time>
      </trkpt>
      <trkpt lat="41.68924" lon="8.8378">
        <ele>2.54</ele>
        <time>2011-08-30T12:29:38Z</time>
      </trkpt>
      <trkpt lat="41.68923" lon="8.83781">
        <ele>2.54</ele>
        <time>2011-08-30T12:29:40Z</time>
      </trkpt>
      <trkpt lat="41.6892" lon="8.83786">
        <ele>2.06</ele>
        <time>2011-08-30T12:29:46Z</time>
      </trkpt>
      <trkpt lat="41.68914" lon="8.83795">
        <ele>2.06</ele>
        <time>2011-08-30T12:29:59Z</time>
      </trkpt>
      <trkpt lat="41.68914" lon="8.83796">
        <ele>2.06</ele>
        <time>2011-08-30T12:30:00Z</time>
      </trkpt>
      <trkpt lat="41.68911" lon="8.83801">
        <ele>2.54</ele>
        <time>2011-08-30T12:30:09Z</time>
      </trkpt>
      <trkpt lat="41.68909" lon="8.83804">
        <ele>2.06</ele>
        <time>2011-08-30T12:30:15Z</time>
      </trkpt>
      <trkpt lat="41.68906" lon="8.8381">
        <ele>2.06</ele>
        <time>2011-08-30T12:30:27Z</time>
      </trkpt>
      <trkpt lat="41.68904" lon="8.83818">
        <ele>2.06</ele>
        <time>2011-08-30T12:30:39Z</time>
      </trkpt>
      <trkpt lat="41.68901" lon="8.83825">
        <ele>2.06</ele>
        <time>2011-08-30T12:30:52Z</time>
      </trkpt>
      <trkpt lat="41.68899" lon="8.83831">
        <ele>2.54</ele>
        <time>2011-08-30T12:31:03Z</time>
      </trkpt>
      <trkpt lat="41.68896" lon="8.83838">
        <ele>2.54</ele>
        <time>2011-08-30T12:31:15Z</time>
      </trkpt>
      <trkpt lat="41.68892" lon="8.83845">
        <ele>2.06</ele>
        <time>2011-08-30T12:31:26Z</time>
      </trkpt>
      <trkpt lat="41.6889" lon="8.8385">
        <ele>2.06</ele>
        <time>2011-08-30T12:31:35Z</time>
      </trkpt>
      <trkpt lat="41.68889" lon="8.83853">
        <ele>2.06</ele>
        <time>2011-08-30T12:31:40Z</time>
      </trkpt>
      <trkpt lat="41.68886" lon="8.83861">
        <ele>1.58</ele>
        <time>2011-08-30T12:31:52Z</time>
      </trkpt>
      <trkpt lat="41.68882" lon="8.83868">
        <ele>2.06</ele>
        <time>2011-08-30T12:32:04Z</time>
      </trkpt>
      <trkpt lat="41.68878" lon="8.83875">
        <ele>2.06</ele>
        <time>2011-08-30T12:32:15Z</time>
      </trkpt>
      <trkpt lat="41.68874" lon="8.83884">
        <ele>2.06</ele>
        <time>2011-08-30T12:32:29Z</time>
      </trkpt>
      <trkpt lat="41.68871" lon="8.83893">
        <ele>1.58</ele>
        <time>2011-08-30T12:32:42Z</time>
      </trkpt>
      <trkpt lat="41.68867" lon="8.839">
        <ele>2.06</ele>
        <time>2011-08-30T12:32:54Z</time>
      </trkpt>
      <trkpt lat="41.68863" lon="8.83909">
        <ele>1.58</ele>
        <time>2011-08-30T12:33:08Z</time>
      </trkpt>
      <trkpt lat="41.68859" lon="8.83918">
        <ele>2.06</ele>
        <time>2011-08-30T12:33:22Z</time>
      </trkpt>
      <trkpt lat="41.68853" lon="8.83927">
        <ele>2.06</ele>
        <time>2011-08-30T12:33:36Z</time>
      </trkpt>
      <trkpt lat="41.68851" lon="8.83933">
        <ele>2.06</ele>
        <time>2011-08-30T12:33:44Z</time>
      </trkpt>
      <trkpt lat="41.68847" lon="8.83942">
        <ele>1.58</ele>
        <time>2011-08-30T12:33:56Z</time>
      </trkpt>
      <trkpt lat="41.68844" lon="8.83949">
        <ele>2.06</ele>
        <time>2011-08-30T12:34:08Z</time>
      </trkpt>
      <trkpt lat="41.68841" lon="8.83957">
        <ele>2.06</ele>
        <time>2011-08-30T12:34:20Z</time>
      </trkpt>
      <trkpt lat="41.68837" lon="8.83966">
        <ele>2.06</ele>
        <time>2011-08-30T12:34:32Z</time>
      </trkpt>
      <trkpt lat="41.68832" lon="8.83976">
        <ele>1.58</ele>
        <time>2011-08-30T12:34:48Z</time>
      </trkpt>
      <trkpt lat="41.68828" lon="8.83986">
        <ele>1.58</ele>
        <time>2011-08-30T12:35:02Z</time>
      </trkpt>
      <trkpt lat="41.68824" lon="8.83997">
        <ele>2.06</ele>
        <time>2011-08-30T12:35:18Z</time>
      </trkpt>
      <trkpt lat="41.68822" lon="8.83999">
        <ele>2.06</ele>
        <time>2011-08-30T12:35:21Z</time>
      </trkpt>
      <trkpt lat="41.68814" lon="8.84006">
        <ele>2.06</ele>
        <time>2011-08-30T12:35:28Z</time>
      </trkpt>
      <trkpt lat="41.688" lon="8.84017">
        <ele>2.54</ele>
        <time>2011-08-30T12:35:40Z</time>
      </trkpt>
      <trkpt lat="41.68794" lon="8.84024">
        <ele>1.58</ele>
        <time>2011-08-30T12:35:44Z</time>
      </trkpt>
      <trkpt lat="41.6879" lon="8.84047">
        <ele>1.58</ele>
        <time>2011-08-30T12:35:55Z</time>
      </trkpt>
      <trkpt lat="41.68788" lon="8.84071">
        <ele>1.58</ele>
        <time>2011-08-30T12:36:06Z</time>
      </trkpt>
      <trkpt lat="41.6878" lon="8.84092">
        <ele>1.58</ele>
        <time>2011-08-30T12:36:16Z</time>
      </trkpt>
      <trkpt lat="41.68778" lon="8.84121">
        <ele>1.1</ele>
        <time>2011-08-30T12:36:29Z</time>
      </trkpt>
      <trkpt lat="41.68777" lon="8.84148">
        <ele>1.58</ele>
        <time>2011-08-30T12:36:41Z</time>
      </trkpt>
      <trkpt lat="41.68776" lon="8.84176">
        <ele>1.58</ele>
        <time>2011-08-30T12:36:53Z</time>
      </trkpt>
      <trkpt lat="41.68771" lon="8.84211">
        <ele>2.06</ele>
        <time>2011-08-30T12:37:10Z</time>
      </trkpt>
      <trkpt lat="41.68768" lon="8.84242">
        <ele>1.58</ele>
        <time>2011-08-30T12:37:22Z</time>
      </trkpt>
      <trkpt lat="41.68767" lon="8.84275">
        <ele>1.58</ele>
        <time>2011-08-30T12:37:35Z</time>
      </trkpt>
      <trkpt lat="41.68766" lon="8.84305">
        <ele>1.58</ele>
        <time>2011-08-30T12:37:49Z</time>
      </trkpt>
      <trkpt lat="41.68763" lon="8.84332">
        <ele>1.58</ele>
        <time>2011-08-30T12:38:02Z</time>
      </trkpt>
      <trkpt lat="41.68763" lon="8.84367">
        <ele>2.06</ele>
        <time>2011-08-30T12:38:16Z</time>
      </trkpt>
      <trkpt lat="41.6876" lon="8.84391">
        <ele>1.58</ele>
        <time>2011-08-30T12:38:27Z</time>
      </trkpt>
      <trkpt lat="41.68753" lon="8.84417">
        <ele>1.58</ele>
        <time>2011-08-30T12:38:39Z</time>
      </trkpt>
      <trkpt lat="41.68751" lon="8.84453">
        <ele>2.06</ele>
        <time>2011-08-30T12:38:54Z</time>
      </trkpt>
      <trkpt lat="41.68747" lon="8.84489">
        <ele>1.58</ele>
        <time>2011-08-30T12:39:09Z</time>
      </trkpt>
      <trkpt lat="41.68747" lon="8.84516">
        <ele>2.06</ele>
        <time>2011-08-30T12:39:21Z</time>
      </trkpt>
      <trkpt lat="41.68742" lon="8.84541">
        <ele>1.58</ele>
        <time>2011-08-30T12:39:33Z</time>
      </trkpt>
      <trkpt lat="41.68739" lon="8.8457">
        <ele>2.06</ele>
        <time>2011-08-30T12:39:45Z</time>
      </trkpt>
      <trkpt lat="41.6873" lon="8.84597">
        <ele>1.58</ele>
        <time>2011-08-30T12:40:00Z</time>
      </trkpt>
      <trkpt lat="41.6872" lon="8.84614">
        <ele>2.06</ele>
        <time>2011-08-30T12:40:10Z</time>
      </trkpt>
      <trkpt lat="41.68713" lon="8.84643">
        <ele>2.06</ele>
        <time>2011-08-30T12:40:24Z</time>
      </trkpt>
      <trkpt lat="41.68705" lon="8.84668">
        <ele>2.06</ele>
        <time>2011-08-30T12:40:37Z</time>
      </trkpt>
      <trkpt lat="41.68704" lon="8.84696">
        <ele>2.54</ele>
        <time>2011-08-30T12:40:50Z</time>
      </trkpt>
      <trkpt lat="41.68702" lon="8.84722">
        <ele>2.06</ele>
        <time>2011-08-30T12:41:02Z</time>
      </trkpt>
      <trkpt lat="41.68695" lon="8.84749">
        <ele>2.06</ele>
        <time>2011-08-30T12:41:14Z</time>
      </trkpt>
      <trkpt lat="41.68693" lon="8.84777">
        <ele>2.54</ele>
        <time>2011-08-30T12:41:26Z</time>
      </trkpt>
      <trkpt lat="41.6869" lon="8.84809">
        <ele>2.54</ele>
        <time>2011-08-30T12:41:39Z</time>
      </trkpt>
      <trkpt lat="41.68684" lon="8.84842">
        <ele>2.06</ele>
        <time>2011-08-30T12:41:52Z</time>
      </trkpt>
      <trkpt lat="41.68685" lon="8.84854">
        <ele>-1.3</ele>
        <time>2011-08-30T12:41:58Z</time>
      </trkpt>
      <trkpt lat="41.68685" lon="8.84855">
        <ele>3.02</ele>
        <time>2011-08-30T12:41:59Z</time>
      </trkpt>
      <trkpt lat="41.68687" lon="8.84862">
        <ele>2.06</ele>
        <time>2011-08-30T12:42:04Z</time>
      </trkpt>
      <trkpt lat="41.6869" lon="8.84875">
        <ele>2.06</ele>
        <time>2011-08-30T12:42:10Z</time>
      </trkpt>
      <trkpt lat="41.68687" lon="8.84896">
        <ele>2.06</ele>
        <time>2011-08-30T12:42:19Z</time>
      </trkpt>
      <trkpt lat="41.68679" lon="8.84931">
        <ele>1.58</ele>
        <time>2011-08-30T12:42:34Z</time>
      </trkpt>
      <trkpt lat="41.6867" lon="8.84961">
        <ele>2.54</ele>
        <time>2011-08-30T12:42:47Z</time>
      </trkpt>
      <trkpt lat="41.68662" lon="8.84987">
        <ele>2.06</ele>
        <time>2011-08-30T12:43:00Z</time>
      </trkpt>
      <trkpt lat="41.68657" lon="8.85013">
        <ele>2.06</ele>
        <time>2011-08-30T12:43:13Z</time>
      </trkpt>
      <trkpt lat="41.68655" lon="8.85035">
        <ele>2.06</ele>
        <time>2011-08-30T12:43:24Z</time>
      </trkpt>
      <trkpt lat="41.68648" lon="8.85059">
        <ele>2.06</ele>
        <time>2011-08-30T12:43:36Z</time>
      </trkpt>
      <trkpt lat="41.68644" lon="8.85078">
        <ele>2.06</ele>
        <time>2011-08-30T12:43:46Z</time>
      </trkpt>
      <trkpt lat="41.68639" lon="8.8509">
        <ele>2.06</ele>
        <time>2011-08-30T12:43:53Z</time>
      </trkpt>
      <trkpt lat="41.68629" lon="8.85118">
        <ele>2.54</ele>
        <time>2011-08-30T12:44:07Z</time>
      </trkpt>
      <trkpt lat="41.68621" lon="8.85143">
        <ele>2.54</ele>
        <time>2011-08-30T12:44:20Z</time>
      </trkpt>
      <trkpt lat="41.68614" lon="8.85166">
        <ele>2.54</ele>
        <time>2011-08-30T12:44:32Z</time>
      </trkpt>
      <trkpt lat="41.6861" lon="8.85195">
        <ele>2.06</ele>
        <time>2011-08-30T12:44:46Z</time>
      </trkpt>
      <trkpt lat="41.6861" lon="8.85225">
        <ele>2.06</ele>
        <time>2011-08-30T12:45:00Z</time>
      </trkpt>
      <trkpt lat="41.68605" lon="8.85254">
        <ele>2.06</ele>
        <time>2011-08-30T12:45:13Z</time>
      </trkpt>
      <trkpt lat="41.68604" lon="8.85289">
        <ele>2.06</ele>
        <time>2011-08-30T12:45:29Z</time>
      </trkpt>
      <trkpt lat="41.68604" lon="8.85312">
        <ele>2.06</ele>
        <time>2011-08-30T12:45:39Z</time>
      </trkpt>
      <trkpt lat="41.686" lon="8.85338">
        <ele>2.06</ele>
        <time>2011-08-30T12:45:49Z</time>
      </trkpt>
      <trkpt lat="41.68597" lon="8.85366">
        <ele>2.54</ele>
        <time>2011-08-30T12:46:00Z</time>
      </trkpt>
      <trkpt lat="41.68589" lon="8.85395">
        <ele>2.06</ele>
        <time>2011-08-30T12:46:12Z</time>
      </trkpt>
      <trkpt lat="41.68592" lon="8.85429">
        <ele>2.06</ele>
        <time>2011-08-30T12:46:24Z</time>
      </trkpt>
      <trkpt lat="41.6859" lon="8.8546">
        <ele>2.06</ele>
        <time>2011-08-30T12:46:38Z</time>
      </trkpt>
      <trkpt lat="41.68587" lon="8.8549">
        <ele>2.06</ele>
        <time>2011-08-30T12:46:50Z</time>
      </trkpt>
      <trkpt lat="41.68584" lon="8.85527">
        <ele>2.54</ele>
        <time>2011-08-30T12:47:04Z</time>
      </trkpt>
      <trkpt lat="41.68584" lon="8.85554">
        <ele>2.54</ele>
        <time>2011-08-30T12:47:15Z</time>
      </trkpt>
      <trkpt lat="41.68577" lon="8.85587">
        <ele>2.06</ele>
        <time>2011-08-30T12:47:29Z</time>
      </trkpt>
      <trkpt lat="41.68576" lon="8.85609">
        <ele>2.06</ele>
        <time>2011-08-30T12:47:39Z</time>
      </trkpt>
      <trkpt lat="41.68574" lon="8.85624">
        <ele>2.06</ele>
        <time>2011-08-30T12:47:46Z</time>
      </trkpt>
      <trkpt lat="41.6857" lon="8.85636">
        <ele>2.06</ele>
        <time>2011-08-30T12:47:52Z</time>
      </trkpt>
      <trkpt lat="41.68564" lon="8.85669">
        <ele>1.58</ele>
        <time>2011-08-30T12:48:06Z</time>
      </trkpt>
      <trkpt lat="41.68554" lon="8.85693">
        <ele>2.54</ele>
        <time>2011-08-30T12:48:18Z</time>
      </trkpt>
      <trkpt lat="41.6854" lon="8.85718">
        <ele>2.06</ele>
        <time>2011-08-30T12:48:31Z</time>
      </trkpt>
      <trkpt lat="41.68528" lon="8.85742">
        <ele>2.54</ele>
        <time>2011-08-30T12:48:43Z</time>
      </trkpt>
      <trkpt lat="41.68517" lon="8.85764">
        <ele>2.06</ele>
        <time>2011-08-30T12:48:56Z</time>
      </trkpt>
      <trkpt lat="41.68515" lon="8.85768">
        <ele>1.1</ele>
        <time>2011-08-30T12:49:00Z</time>
      </trkpt>
      <trkpt lat="41.68515" lon="8.85768">
        <ele>0.62</ele>
        <time>2011-08-30T12:56:11Z</time>
      </trkpt>
      <trkpt lat="41.68515" lon="8.85768">
        <ele>2.06</ele>
        <time>2011-08-30T12:56:12Z</time>
      </trkpt>
      <trkpt lat="41.6813" lon="8.86588">
        <ele>2.54</ele>
        <time>2011-08-30T12:56:17Z</time>
      </trkpt>
      <trkpt lat="41.68121" lon="8.86603">
        <ele>2.06</ele>
        <time>2011-08-30T12:56:25Z</time>
      </trkpt>
      <trkpt lat="41.68112" lon="8.8662">
        <ele>2.54</ele>
        <time>2011-08-30T12:56:38Z</time>
      </trkpt>
      <trkpt lat="41.6811" lon="8.86622">
        <ele>3.98</ele>
        <time>2011-08-30T12:56:40Z</time>
      </trkpt>
      <trkpt lat="41.68106" lon="8.86627">
        <ele>2.54</ele>
        <time>2011-08-30T12:56:47Z</time>
      </trkpt>
      <trkpt lat="41.68088" lon="8.86638">
        <ele>2.54</ele>
        <time>2011-08-30T12:57:01Z</time>
      </trkpt>
      <trkpt lat="41.68075" lon="8.86649">
        <ele>2.06</ele>
        <time>2011-08-30T12:57:12Z</time>
      </trkpt>
      <trkpt lat="41.68071" lon="8.86651">
        <ele>2.54</ele>
        <time>2011-08-30T12:57:15Z</time>
      </trkpt>
      <trkpt lat="41.68061" lon="8.86656">
        <ele>2.54</ele>
        <time>2011-08-30T12:57:22Z</time>
      </trkpt>
      <trkpt lat="41.68059" lon="8.86659">
        <ele>2.54</ele>
        <time>2011-08-30T12:57:24Z</time>
      </trkpt>
      <trkpt lat="41.68052" lon="8.86666">
        <ele>2.54</ele>
        <time>2011-08-30T12:57:29Z</time>
      </trkpt>
      <trkpt lat="41.68044" lon="8.86677">
        <ele>2.54</ele>
        <time>2011-08-30T12:57:36Z</time>
      </trkpt>
      <trkpt lat="41.68027" lon="8.86695">
        <ele>2.06</ele>
        <time>2011-08-30T12:57:49Z</time>
      </trkpt>
      <trkpt lat="41.68013" lon="8.8672">
        <ele>2.54</ele>
        <time>2011-08-30T12:58:02Z</time>
      </trkpt>
      <trkpt lat="41.68" lon="8.86742">
        <ele>2.06</ele>
        <time>2011-08-30T12:58:14Z</time>
      </trkpt>
      <trkpt lat="41.67996" lon="8.8675">
        <ele>2.54</ele>
        <time>2011-08-30T12:58:18Z</time>
      </trkpt>
      <trkpt lat="41.67989" lon="8.86757">
        <ele>2.06</ele>
        <time>2011-08-30T12:58:23Z</time>
      </trkpt>
      <trkpt lat="41.6798" lon="8.86784">
        <ele>1.58</ele>
        <time>2011-08-30T12:58:37Z</time>
      </trkpt>
      <trkpt lat="41.67964" lon="8.86804">
        <ele>2.06</ele>
        <time>2011-08-30T12:58:50Z</time>
      </trkpt>
      <trkpt lat="41.67957" lon="8.86811">
        <ele>2.54</ele>
        <time>2011-08-30T12:58:55Z</time>
      </trkpt>
      <trkpt lat="41.67947" lon="8.86821">
        <ele>2.54</ele>
        <time>2011-08-30T12:59:02Z</time>
      </trkpt>
      <trkpt lat="41.67925" lon="8.86841">
        <ele>2.06</ele>
        <time>2011-08-30T12:59:17Z</time>
      </trkpt>
      <trkpt lat="41.67908" lon="8.86857">
        <ele>1.58</ele>
        <time>2011-08-30T12:59:29Z</time>
      </trkpt>
      <trkpt lat="41.67903" lon="8.8686">
        <ele>2.06</ele>
        <time>2011-08-30T12:59:33Z</time>
      </trkpt>
      <trkpt lat="41.6789" lon="8.86872">
        <ele>2.06</ele>
        <time>2011-08-30T12:59:45Z</time>
      </trkpt>
      <trkpt lat="41.67881" lon="8.86881">
        <ele>2.06</ele>
        <time>2011-08-30T12:59:53Z</time>
      </trkpt>
      <trkpt lat="41.67866" lon="8.86891">
        <ele>2.06</ele>
        <time>2011-08-30T13:00:05Z</time>
      </trkpt>
      <trkpt lat="41.67863" lon="8.86894">
        <ele>2.06</ele>
        <time>2011-08-30T13:00:08Z</time>
      </trkpt>
      <trkpt lat="41.67857" lon="8.86902">
        <ele>2.06</ele>
        <time>2011-08-30T13:00:14Z</time>
      </trkpt>
      <trkpt lat="41.67845" lon="8.86912">
        <ele>2.06</ele>
        <time>2011-08-30T13:00:24Z</time>
      </trkpt>
      <trkpt lat="41.67833" lon="8.86927">
        <ele>2.06</ele>
        <time>2011-08-30T13:00:36Z</time>
      </trkpt>
      <trkpt lat="41.67831" lon="8.86929">
        <ele>2.06</ele>
        <time>2011-08-30T13:00:39Z</time>
      </trkpt>
      <trkpt lat="41.67826" lon="8.86934">
        <ele>2.54</ele>
        <time>2011-08-30T13:00:45Z</time>
      </trkpt>
      <trkpt lat="41.67822" lon="8.86938">
        <ele>2.54</ele>
        <time>2011-08-30T13:00:51Z</time>
      </trkpt>
      <trkpt lat="41.67819" lon="8.86941">
        <ele>2.54</ele>
        <time>2011-08-30T13:00:54Z</time>
      </trkpt>
      <trkpt lat="41.67811" lon="8.86947">
        <ele>1.58</ele>
        <time>2011-08-30T13:01:01Z</time>
      </trkpt>
      <trkpt lat="41.67798" lon="8.86961">
        <ele>1.58</ele>
        <time>2011-08-30T13:01:13Z</time>
      </trkpt>
      <trkpt lat="41.67782" lon="8.86975">
        <ele>2.06</ele>
        <time>2011-08-30T13:01:26Z</time>
      </trkpt>
      <trkpt lat="41.67777" lon="8.86981">
        <ele>1.58</ele>
        <time>2011-08-30T13:01:30Z</time>
      </trkpt>
      <trkpt lat="41.67772" lon="8.86987">
        <ele>1.58</ele>
        <time>2011-08-30T13:01:34Z</time>
      </trkpt>
      <trkpt lat="41.67755" lon="8.87004">
        <ele>1.1</ele>
        <time>2011-08-30T13:01:47Z</time>
      </trkpt>
      <trkpt lat="41.67739" lon="8.87021">
        <ele>2.06</ele>
        <time>2011-08-30T13:02:00Z</time>
      </trkpt>
      <trkpt lat="41.67725" lon="8.87037">
        <ele>1.58</ele>
        <time>2011-08-30T13:02:11Z</time>
      </trkpt>
      <trkpt lat="41.67717" lon="8.87047">
        <ele>1.58</ele>
        <time>2011-08-30T13:02:17Z</time>
      </trkpt>
      <trkpt lat="41.67712" lon="8.87053">
        <ele>1.1</ele>
        <time>2011-08-30T13:02:22Z</time>
      </trkpt>
      <trkpt lat="41.67705" lon="8.87062">
        <ele>1.58</ele>
        <time>2011-08-30T13:02:28Z</time>
      </trkpt>
      <trkpt lat="41.6769" lon="8.87081">
        <ele>1.58</ele>
        <time>2011-08-30T13:02:42Z</time>
      </trkpt>
      <trkpt lat="41.67674" lon="8.87098">
        <ele>1.58</ele>
        <time>2011-08-30T13:02:55Z</time>
      </trkpt>
      <trkpt lat="41.6766" lon="8.87114">
        <ele>2.06</ele>
        <time>2011-08-30T13:03:07Z</time>
      </trkpt>
      <trkpt lat="41.67652" lon="8.87121">
        <ele>1.58</ele>
        <time>2011-08-30T13:03:13Z</time>
      </trkpt>
      <trkpt lat="41.67644" lon="8.8713">
        <ele>1.58</ele>
        <time>2011-08-30T13:03:20Z</time>
      </trkpt>
      <trkpt lat="41.67632" lon="8.87138">
        <ele>1.58</ele>
        <time>2011-08-30T13:03:31Z</time>
      </trkpt>
      <trkpt lat="41.6762" lon="8.87144">
        <ele>1.58</ele>
        <time>2011-08-30T13:03:42Z</time>
      </trkpt>
      <trkpt lat="41.67614" lon="8.87149">
        <ele>1.58</ele>
        <time>2011-08-30T13:03:48Z</time>
      </trkpt>
      <trkpt lat="41.67598" lon="8.8716">
        <ele>1.58</ele>
        <time>2011-08-30T13:04:00Z</time>
      </trkpt>
      <trkpt lat="41.67591" lon="8.87167">
        <ele>1.58</ele>
        <time>2011-08-30T13:04:07Z</time>
      </trkpt>
      <trkpt lat="41.67577" lon="8.87182">
        <ele>1.58</ele>
        <time>2011-08-30T13:04:20Z</time>
      </trkpt>
      <trkpt lat="41.67566" lon="8.87192">
        <ele>1.1</ele>
        <time>2011-08-30T13:04:30Z</time>
      </trkpt>
      <trkpt lat="41.67544" lon="8.8721">
        <ele>1.1</ele>
        <time>2011-08-30T13:04:48Z</time>
      </trkpt>
      <trkpt lat="41.67528" lon="8.87221">
        <ele>1.1</ele>
        <time>2011-08-30T13:05:01Z</time>
      </trkpt>
      <trkpt lat="41.67514" lon="8.87231">
        <ele>1.1</ele>
        <time>2011-08-30T13:05:12Z</time>
      </trkpt>
      <trkpt lat="41.67499" lon="8.87242">
        <ele>0.62</ele>
        <time>2011-08-30T13:05:23Z</time>
      </trkpt>
      <trkpt lat="41.67494" lon="8.87245">
        <ele>1.58</ele>
        <time>2011-08-30T13:05:28Z</time>
      </trkpt>
      <trkpt lat="41.67487" lon="8.87249">
        <ele>1.1</ele>
        <time>2011-08-30T13:05:34Z</time>
      </trkpt>
      <trkpt lat="41.67482" lon="8.87254">
        <ele>1.1</ele>
        <time>2011-08-30T13:05:38Z</time>
      </trkpt>
      <trkpt lat="41.67471" lon="8.87269">
        <ele>1.1</ele>
        <time>2011-08-30T13:05:49Z</time>
      </trkpt>
      <trkpt lat="41.67467" lon="8.87275">
        <ele>1.1</ele>
        <time>2011-08-30T13:05:53Z</time>
      </trkpt>
      <trkpt lat="41.67464" lon="8.87279">
        <ele>1.58</ele>
        <time>2011-08-30T13:05:56Z</time>
      </trkpt>
      <trkpt lat="41.67459" lon="8.87286">
        <ele>1.1</ele>
        <time>2011-08-30T13:06:01Z</time>
      </trkpt>
      <trkpt lat="41.67448" lon="8.8731">
        <ele>1.1</ele>
        <time>2011-08-30T13:06:16Z</time>
      </trkpt>
      <trkpt lat="41.67445" lon="8.87315">
        <ele>0.62</ele>
        <time>2011-08-30T13:06:21Z</time>
      </trkpt>
      <trkpt lat="41.67434" lon="8.87329">
        <ele>1.1</ele>
        <time>2011-08-30T13:06:32Z</time>
      </trkpt>
      <trkpt lat="41.6742" lon="8.87342">
        <ele>1.58</ele>
        <time>2011-08-30T13:06:44Z</time>
      </trkpt>
      <trkpt lat="41.67411" lon="8.87352">
        <ele>1.1</ele>
        <time>2011-08-30T13:06:58Z</time>
      </trkpt>
      <trkpt lat="41.67406" lon="8.87356">
        <ele>1.1</ele>
        <time>2011-08-30T13:07:11Z</time>
      </trkpt>
      <trkpt lat="41.67389" lon="8.87362">
        <ele>1.1</ele>
        <time>2011-08-30T13:07:25Z</time>
      </trkpt>
      <trkpt lat="41.67378" lon="8.87367">
        <ele>1.58</ele>
        <time>2011-08-30T13:07:32Z</time>
      </trkpt>
      <trkpt lat="41.67363" lon="8.87378">
        <ele>1.1</ele>
        <time>2011-08-30T13:07:44Z</time>
      </trkpt>
      <trkpt lat="41.67347" lon="8.87392">
        <ele>1.1</ele>
        <time>2011-08-30T13:07:58Z</time>
      </trkpt>
      <trkpt lat="41.67332" lon="8.87405">
        <ele>0.62</ele>
        <time>2011-08-30T13:08:10Z</time>
      </trkpt>
      <trkpt lat="41.67328" lon="8.87408">
        <ele>0.62</ele>
        <time>2011-08-30T13:08:13Z</time>
      </trkpt>
      <trkpt lat="41.67321" lon="8.87415">
        <ele>1.1</ele>
        <time>2011-08-30T13:08:20Z</time>
      </trkpt>
      <trkpt lat="41.67314" lon="8.87421">
        <ele>0.62</ele>
        <time>2011-08-30T13:08:27Z</time>
      </trkpt>
      <trkpt lat="41.67295" lon="8.87441">
        <ele>1.1</ele>
        <time>2011-08-30T13:08:43Z</time>
      </trkpt>
      <trkpt lat="41.67293" lon="8.87443">
        <ele>1.58</ele>
        <time>2011-08-30T13:08:45Z</time>
      </trkpt>
      <trkpt lat="41.67281" lon="8.87452">
        <ele>0.62</ele>
        <time>2011-08-30T13:08:58Z</time>
      </trkpt>
      <trkpt lat="41.67267" lon="8.87461">
        <ele>0.62</ele>
        <time>2011-08-30T13:09:10Z</time>
      </trkpt>
      <trkpt lat="41.67258" lon="8.87467">
        <ele>0.62</ele>
        <time>2011-08-30T13:09:17Z</time>
      </trkpt>
      <trkpt lat="41.67252" lon="8.87471">
        <ele>0.62</ele>
        <time>2011-08-30T13:09:21Z</time>
      </trkpt>
      <trkpt lat="41.67248" lon="8.87474">
        <ele>0.62</ele>
        <time>2011-08-30T13:09:24Z</time>
      </trkpt>
      <trkpt lat="41.67245" lon="8.87476">
        <ele>-2.27</ele>
        <time>2011-08-30T13:09:26Z</time>
      </trkpt>
      <trkpt lat="41.67244" lon="8.87476">
        <ele>-1.79</ele>
        <time>2011-08-30T13:09:27Z</time>
      </trkpt>
      <trkpt lat="41.67239" lon="8.87479">
        <ele>1.58</ele>
        <time>2011-08-30T13:09:33Z</time>
      </trkpt>
      <trkpt lat="41.67228" lon="8.87485">
        <ele>1.1</ele>
        <time>2011-08-30T13:09:47Z</time>
      </trkpt>
      <trkpt lat="41.67214" lon="8.87493">
        <ele>0.62</ele>
        <time>2011-08-30T13:09:58Z</time>
      </trkpt>
      <trkpt lat="41.67199" lon="8.87505">
        <ele>1.1</ele>
        <time>2011-08-30T13:10:11Z</time>
      </trkpt>
      <trkpt lat="41.67182" lon="8.87517">
        <ele>1.1</ele>
        <time>2011-08-30T13:10:24Z</time>
      </trkpt>
      <trkpt lat="41.6717" lon="8.87526">
        <ele>1.1</ele>
        <time>2011-08-30T13:10:34Z</time>
      </trkpt>
      <trkpt lat="41.67161" lon="8.87532">
        <ele>1.1</ele>
        <time>2011-08-30T13:10:41Z</time>
      </trkpt>
      <trkpt lat="41.67146" lon="8.87543">
        <ele>1.1</ele>
        <time>2011-08-30T13:10:53Z</time>
      </trkpt>
      <trkpt lat="41.67145" lon="8.87543">
        <ele>1.1</ele>
        <time>2011-08-30T13:10:54Z</time>
      </trkpt>
      <trkpt lat="41.67143" lon="8.87547">
        <ele>-4.67</ele>
        <time>2011-08-30T13:10:56Z</time>
      </trkpt>
      <trkpt lat="41.67142" lon="8.87547">
        <ele>-2.27</ele>
        <time>2011-08-30T13:10:57Z</time>
      </trkpt>
      <trkpt lat="41.67139" lon="8.87549">
        <ele>4.94</ele>
        <time>2011-08-30T13:11:00Z</time>
      </trkpt>
      <trkpt lat="41.67135" lon="8.87551">
        <ele>1.58</ele>
        <time>2011-08-30T13:11:03Z</time>
      </trkpt>
      <trkpt lat="41.67134" lon="8.87551">
        <ele>1.58</ele>
        <time>2011-08-30T13:11:04Z</time>
      </trkpt>
      <trkpt lat="41.6712" lon="8.8756">
        <ele>0.62</ele>
        <time>2011-08-30T13:11:15Z</time>
      </trkpt>
      <trkpt lat="41.67118" lon="8.87562">
        <ele>-3.71</ele>
        <time>2011-08-30T13:11:17Z</time>
      </trkpt>
      <trkpt lat="41.67114" lon="8.87565">
        <ele>1.58</ele>
        <time>2011-08-30T13:11:20Z</time>
      </trkpt>
      <trkpt lat="41.67112" lon="8.87566">
        <ele>1.58</ele>
        <time>2011-08-30T13:11:22Z</time>
      </trkpt>
      <trkpt lat="41.67109" lon="8.87567">
        <ele>0.62</ele>
        <time>2011-08-30T13:11:24Z</time>
      </trkpt>
      <trkpt lat="41.67103" lon="8.87571">
        <ele>1.1</ele>
        <time>2011-08-30T13:11:30Z</time>
      </trkpt>
      <trkpt lat="41.67095" lon="8.87576">
        <ele>1.1</ele>
        <time>2011-08-30T13:11:36Z</time>
      </trkpt>
      <trkpt lat="41.67087" lon="8.87584">
        <ele>1.1</ele>
        <time>2011-08-30T13:11:43Z</time>
      </trkpt>
      <trkpt lat="41.6708" lon="8.87588">
        <ele>0.62</ele>
        <time>2011-08-30T13:11:50Z</time>
      </trkpt>
      <trkpt lat="41.67066" lon="8.87599">
        <ele>0.62</ele>
        <time>2011-08-30T13:12:02Z</time>
      </trkpt>
      <trkpt lat="41.67062" lon="8.87602">
        <ele>1.1</ele>
        <time>2011-08-30T13:12:06Z</time>
      </trkpt>
      <trkpt lat="41.67044" lon="8.8761">
        <ele>1.1</ele>
        <time>2011-08-30T13:12:20Z</time>
      </trkpt>
      <trkpt lat="41.67037" lon="8.87613">
        <ele>0.62</ele>
        <time>2011-08-30T13:12:26Z</time>
      </trkpt>
      <trkpt lat="41.67021" lon="8.87618">
        <ele>0.62</ele>
        <time>2011-08-30T13:12:39Z</time>
      </trkpt>
      <trkpt lat="41.67005" lon="8.87627">
        <ele>0.62</ele>
        <time>2011-08-30T13:12:53Z</time>
      </trkpt>
      <trkpt lat="41.66998" lon="8.87631">
        <ele>0.14</ele>
        <time>2011-08-30T13:12:59Z</time>
      </trkpt>
      <trkpt lat="41.6698" lon="8.87642">
        <ele>0.62</ele>
        <time>2011-08-30T13:13:13Z</time>
      </trkpt>
      <trkpt lat="41.66969" lon="8.87648">
        <ele>0.62</ele>
        <time>2011-08-30T13:13:23Z</time>
      </trkpt>
      <trkpt lat="41.66961" lon="8.87651">
        <ele>0.62</ele>
        <time>2011-08-30T13:13:30Z</time>
      </trkpt>
      <trkpt lat="41.66954" lon="8.87656">
        <ele>1.1</ele>
        <time>2011-08-30T13:13:37Z</time>
      </trkpt>
      <trkpt lat="41.66949" lon="8.87658">
        <ele>0.62</ele>
        <time>2011-08-30T13:13:41Z</time>
      </trkpt>
      <trkpt lat="41.66939" lon="8.87661">
        <ele>1.1</ele>
        <time>2011-08-30T13:13:50Z</time>
      </trkpt>
      <trkpt lat="41.66927" lon="8.87666">
        <ele>0.62</ele>
        <time>2011-08-30T13:13:59Z</time>
      </trkpt>
      <trkpt lat="41.66925" lon="8.87667">
        <ele>0.62</ele>
        <time>2011-08-30T13:14:01Z</time>
      </trkpt>
      <trkpt lat="41.66922" lon="8.8767">
        <ele>0.62</ele>
        <time>2011-08-30T13:14:04Z</time>
      </trkpt>
      <trkpt lat="41.66917" lon="8.87675">
        <ele>0.14</ele>
        <time>2011-08-30T13:14:09Z</time>
      </trkpt>
      <trkpt lat="41.66909" lon="8.87682">
        <ele>0.62</ele>
        <time>2011-08-30T13:14:16Z</time>
      </trkpt>
      <trkpt lat="41.6689" lon="8.87695">
        <ele>0.62</ele>
        <time>2011-08-30T13:14:32Z</time>
      </trkpt>
      <trkpt lat="41.66882" lon="8.877">
        <ele>-0.34</ele>
        <time>2011-08-30T13:14:39Z</time>
      </trkpt>
      <trkpt lat="41.66878" lon="8.87703">
        <ele>0.62</ele>
        <time>2011-08-30T13:14:43Z</time>
      </trkpt>
      <trkpt lat="41.66864" lon="8.87713">
        <ele>0.14</ele>
        <time>2011-08-30T13:14:57Z</time>
      </trkpt>
      <trkpt lat="41.6686" lon="8.87715">
        <ele>0.14</ele>
        <time>2011-08-30T13:15:00Z</time>
      </trkpt>
      <trkpt lat="41.66844" lon="8.87726">
        <ele>0.62</ele>
        <time>2011-08-30T13:15:15Z</time>
      </trkpt>
      <trkpt lat="41.66829" lon="8.87736">
        <ele>0.14</ele>
        <time>2011-08-30T13:15:28Z</time>
      </trkpt>
      <trkpt lat="41.66818" lon="8.87755">
        <ele>0.14</ele>
        <time>2011-08-30T13:15:41Z</time>
      </trkpt>
      <trkpt lat="41.6681" lon="8.87769">
        <ele>0.14</ele>
        <time>2011-08-30T13:15:57Z</time>
      </trkpt>
      <trkpt lat="41.668" lon="8.87781">
        <ele>0.14</ele>
        <time>2011-08-30T13:16:09Z</time>
      </trkpt>
      <trkpt lat="41.6679" lon="8.87789">
        <ele>0.62</ele>
        <time>2011-08-30T13:16:24Z</time>
      </trkpt>
      <trkpt lat="41.66788" lon="8.87791">
        <ele>-0.34</ele>
        <time>2011-08-30T13:16:37Z</time>
      </trkpt>
      <trkpt lat="41.66787" lon="8.87792">
        <ele>0.62</ele>
        <time>2011-08-30T13:16:48Z</time>
      </trkpt>
      <trkpt lat="41.66787" lon="8.87793">
        <ele>-2.75</ele>
        <time>2011-08-30T13:16:58Z</time>
      </trkpt>
      <trkpt lat="41.66787" lon="8.87793">
        <ele>2.06</ele>
        <time>2011-08-30T13:16:59Z</time>
      </trkpt>
      <trkpt lat="41.66788" lon="8.878">
        <ele>0.14</ele>
        <time>2011-08-30T13:17:16Z</time>
      </trkpt>
      <trkpt lat="41.66788" lon="8.87803">
        <ele>0.14</ele>
        <time>2011-08-30T13:17:26Z</time>
      </trkpt>
      <trkpt lat="41.66789" lon="8.87806">
        <ele>-0.34</ele>
        <time>2011-08-30T13:17:38Z</time>
      </trkpt>
      <trkpt lat="41.66785" lon="8.87809">
        <ele>0.14</ele>
        <time>2011-08-30T13:17:53Z</time>
      </trkpt>
      <trkpt lat="41.66784" lon="8.87809">
        <ele>0.14</ele>
        <time>2011-08-30T13:17:54Z</time>
      </trkpt>
      <trkpt lat="41.66779" lon="8.8781">
        <ele>0.14</ele>
        <time>2011-08-30T13:17:58Z</time>
      </trkpt>
      <trkpt lat="41.66774" lon="8.87812">
        <ele>0.62</ele>
        <time>2011-08-30T13:18:09Z</time>
      </trkpt>
      <trkpt lat="41.66773" lon="8.87815">
        <ele>1.1</ele>
        <time>2011-08-30T13:18:24Z</time>
      </trkpt>
      <trkpt lat="41.66772" lon="8.87819">
        <ele>0.62</ele>
        <time>2011-08-30T13:18:41Z</time>
      </trkpt>
      <trkpt lat="41.66773" lon="8.87822">
        <ele>0.62</ele>
        <time>2011-08-30T13:18:58Z</time>
      </trkpt>
      <trkpt lat="41.66774" lon="8.87828">
        <ele>0.14</ele>
        <time>2011-08-30T13:19:14Z</time>
      </trkpt>
      <trkpt lat="41.66775" lon="8.8783">
        <ele>0.14</ele>
        <time>2011-08-30T13:19:26Z</time>
      </trkpt>
      <trkpt lat="41.66776" lon="8.87832">
        <ele>-0.34</ele>
        <time>2011-08-30T13:19:38Z</time>
      </trkpt>
      <trkpt lat="41.66777" lon="8.87835">
        <ele>-0.34</ele>
        <time>2011-08-30T13:19:53Z</time>
      </trkpt>
      <trkpt lat="41.66777" lon="8.8784">
        <ele>0.14</ele>
        <time>2011-08-30T13:20:08Z</time>
      </trkpt>
      <trkpt lat="41.66779" lon="8.87844">
        <ele>-0.34</ele>
        <time>2011-08-30T13:20:23Z</time>
      </trkpt>
      <trkpt lat="41.6678" lon="8.87848">
        <ele>-0.34</ele>
        <time>2011-08-30T13:20:37Z</time>
      </trkpt>
      <trkpt lat="41.66779" lon="8.87854">
        <ele>-0.34</ele>
        <time>2011-08-30T13:20:48Z</time>
      </trkpt>
      <trkpt lat="41.66778" lon="8.87856">
        <ele>0.14</ele>
        <time>2011-08-30T13:20:53Z</time>
      </trkpt>
      <trkpt lat="41.66773" lon="8.87862">
        <ele>0.14</ele>
        <time>2011-08-30T13:21:03Z</time>
      </trkpt>
      <trkpt lat="41.66765" lon="8.8789">
        <ele>-0.34</ele>
        <time>2011-08-30T13:21:16Z</time>
      </trkpt>
      <trkpt lat="41.66757" lon="8.87922">
        <ele>-0.34</ele>
        <time>2011-08-30T13:21:29Z</time>
      </trkpt>
      <trkpt lat="41.66755" lon="8.87954">
        <ele>-0.34</ele>
        <time>2011-08-30T13:21:43Z</time>
      </trkpt>
      <trkpt lat="41.66753" lon="8.87963">
        <ele>0.14</ele>
        <time>2011-08-30T13:21:46Z</time>
      </trkpt>
      <trkpt lat="41.66749" lon="8.8797">
        <ele>0.14</ele>
        <time>2011-08-30T13:21:51Z</time>
      </trkpt>
      <trkpt lat="41.66745" lon="8.87979">
        <ele>0.14</ele>
        <time>2011-08-30T13:21:55Z</time>
      </trkpt>
      <trkpt lat="41.66742" lon="8.87985">
        <ele>0.14</ele>
        <time>2011-08-30T13:21:59Z</time>
      </trkpt>
      <trkpt lat="41.66736" lon="8.88007">
        <ele>-0.34</ele>
        <time>2011-08-30T13:22:11Z</time>
      </trkpt>
      <trkpt lat="41.66738" lon="8.88016">
        <ele>-0.82</ele>
        <time>2011-08-30T13:22:13Z</time>
      </trkpt>
      <trkpt lat="41.66745" lon="8.88025">
        <ele>-0.34</ele>
        <time>2011-08-30T13:22:17Z</time>
      </trkpt>
      <trkpt lat="41.66749" lon="8.8803">
        <ele>-0.82</ele>
        <time>2011-08-30T13:22:21Z</time>
      </trkpt>
      <trkpt lat="41.6675" lon="8.88043">
        <ele>-0.34</ele>
        <time>2011-08-30T13:22:25Z</time>
      </trkpt>
      <trkpt lat="41.66748" lon="8.88058">
        <ele>-4.19</ele>
        <time>2011-08-30T13:22:28Z</time>
      </trkpt>
      <trkpt lat="41.66748" lon="8.88063">
        <ele>-3.71</ele>
        <time>2011-08-30T13:22:29Z</time>
      </trkpt>
      <trkpt lat="41.6675" lon="8.88065">
        <ele>2.54</ele>
        <time>2011-08-30T13:22:31Z</time>
      </trkpt>
      <trkpt lat="41.66752" lon="8.88065">
        <ele>-13.32</ele>
        <time>2011-08-30T13:22:32Z</time>
      </trkpt>
      <trkpt lat="41.66753" lon="8.88065">
        <ele>-17.17</ele>
        <time>2011-08-30T13:22:33Z</time>
      </trkpt>
      <trkpt lat="41.66755" lon="8.88065">
        <ele>-6.59</ele>
        <time>2011-08-30T13:22:34Z</time>
      </trkpt>
      <trkpt lat="41.66757" lon="8.88066">
        <ele>0.62</ele>
        <time>2011-08-30T13:22:36Z</time>
      </trkpt>
      <trkpt lat="41.66758" lon="8.88067">
        <ele>-0.82</ele>
        <time>2011-08-30T13:22:38Z</time>
      </trkpt>
      <trkpt lat="41.66759" lon="8.88074">
        <ele>-10.92</ele>
        <time>2011-08-30T13:22:41Z</time>
      </trkpt>
      <trkpt lat="41.66759" lon="8.88076">
        <ele>-2.27</ele>
        <time>2011-08-30T13:22:42Z</time>
      </trkpt>
      <trkpt lat="41.66758" lon="8.88075">
        <ele>-25.82</ele>
        <time>2011-08-30T13:22:43Z</time>
      </trkpt>
      <trkpt lat="41.66758" lon="8.88075">
        <ele>-18.13</ele>
        <time>2011-08-30T13:22:44Z</time>
      </trkpt>
      <trkpt lat="41.66759" lon="8.88075">
        <ele>-3.71</ele>
        <time>2011-08-30T13:22:45Z</time>
      </trkpt>
      <trkpt lat="41.66759" lon="8.88075">
        <ele>-0.82</ele>
        <time>2011-08-30T13:22:47Z</time>
      </trkpt>
      <trkpt lat="41.66759" lon="8.88075">
        <ele>-9</ele>
        <time>2011-08-30T13:22:48Z</time>
      </trkpt>
      <trkpt lat="41.66759" lon="8.88075">
        <ele>-15.72</ele>
        <time>2011-08-30T13:22:50Z</time>
      </trkpt>
      <trkpt lat="41.66758" lon="8.88074">
        <ele>-4.67</ele>
        <time>2011-08-30T13:22:51Z</time>
      </trkpt>
      <trkpt lat="41.66759" lon="8.88074">
        <ele>-46.01</ele>
        <time>2011-08-30T13:22:52Z</time>
      </trkpt>
      <trkpt lat="41.66759" lon="8.88073">
        <ele>-45.04</ele>
        <time>2011-08-30T13:22:53Z</time>
      </trkpt>
      <trkpt lat="41.66759" lon="8.88073">
        <ele>-20.05</ele>
        <time>2011-08-30T13:22:54Z</time>
      </trkpt>
      <trkpt lat="41.66759" lon="8.88074">
        <ele>-0.82</ele>
        <time>2011-08-30T13:22:55Z</time>
      </trkpt>
      <trkpt lat="41.66759" lon="8.88075">
        <ele>-12.36</ele>
        <time>2011-08-30T13:22:59Z</time>
      </trkpt>
      <trkpt lat="41.66759" lon="8.88074">
        <ele>-2.27</ele>
        <time>2011-08-30T13:23:00Z</time>
      </trkpt>
      <trkpt lat="41.66758" lon="8.88074">
        <ele>-0.34</ele>
        <time>2011-08-30T13:23:02Z</time>
      </trkpt>
      <trkpt lat="41.66757" lon="8.88075">
        <ele>-2.27</ele>
        <time>2011-08-30T13:23:06Z</time>
      </trkpt>
      <trkpt lat="41.66756" lon="8.88077">
        <ele>2.54</ele>
        <time>2011-08-30T13:23:08Z</time>
      </trkpt>
      <trkpt lat="41.66756" lon="8.88077">
        <ele>3.02</ele>
        <time>2011-08-30T13:23:09Z</time>
      </trkpt>
      <trkpt lat="41.66756" lon="8.88077">
        <ele>-0.34</ele>
        <time>2011-08-30T13:23:10Z</time>
      </trkpt>
      <trkpt lat="41.66756" lon="8.88077">
        <ele>-0.34</ele>
        <time>2011-08-30T13:23:11Z</time>
      </trkpt>
      <trkpt lat="41.66756" lon="8.88077">
        <ele>-0.82</ele>
        <time>2011-08-30T13:23:13Z</time>
      </trkpt>
      <trkpt lat="41.66755" lon="8.8808">
        <ele>-0.82</ele>
        <time>2011-08-30T13:23:22Z</time>
      </trkpt>
      <trkpt lat="41.66755" lon="8.88079">
        <ele>-2.27</ele>
        <time>2011-08-30T13:23:46Z</time>
      </trkpt>
      <trkpt lat="41.66755" lon="8.88079">
        <ele>-2.27</ele>
        <time>2011-08-30T14:47:03Z</time>
      </trkpt>
      <trkpt lat="41.66755" lon="8.88079">
        <ele>3.02</ele>
        <time>2011-08-30T14:47:05Z</time>
      </trkpt>
      <trkpt lat="41.66758" lon="8.88078">
        <ele>3.02</ele>
        <time>2011-08-30T14:47:08Z</time>
      </trkpt>
      <trkpt lat="41.66756" lon="8.88076">
        <ele>1.58</ele>
        <time>2011-08-30T14:49:58Z</time>
      </trkpt>
      <trkpt lat="41.66756" lon="8.88076">
        <ele>1.1</ele>
        <time>2011-08-30T14:51:56Z</time>
      </trkpt>
      <trkpt lat="41.66756" lon="8.88072">
        <ele>4.46</ele>
        <time>2011-08-30T14:53:48Z</time>
      </trkpt>
      <trkpt lat="41.66761" lon="8.88051">
        <ele>7.83</ele>
        <time>2011-08-30T14:54:01Z</time>
      </trkpt>
      <trkpt lat="41.66764" lon="8.88039">
        <ele>10.71</ele>
        <time>2011-08-30T14:54:12Z</time>
      </trkpt>
      <trkpt lat="41.66757" lon="8.88024">
        <ele>14.08</ele>
        <time>2011-08-30T14:54:22Z</time>
      </trkpt>
      <trkpt lat="41.66751" lon="8.88023">
        <ele>16</ele>
        <time>2011-08-30T14:54:28Z</time>
      </trkpt>
      <trkpt lat="41.66747" lon="8.88026">
        <ele>17.92</ele>
        <time>2011-08-30T14:54:33Z</time>
      </trkpt>
      <trkpt lat="41.66743" lon="8.88028">
        <ele>19.36</ele>
        <time>2011-08-30T14:54:36Z</time>
      </trkpt>
      <trkpt lat="41.66739" lon="8.88025">
        <ele>20.81</ele>
        <time>2011-08-30T14:54:40Z</time>
      </trkpt>
      <trkpt lat="41.66736" lon="8.88021">
        <ele>21.29</ele>
        <time>2011-08-30T14:54:43Z</time>
      </trkpt>
      <trkpt lat="41.66733" lon="8.88013">
        <ele>24.65</ele>
        <time>2011-08-30T14:54:49Z</time>
      </trkpt>
      <trkpt lat="41.66733" lon="8.8801">
        <ele>25.61</ele>
        <time>2011-08-30T14:54:51Z</time>
      </trkpt>
      <trkpt lat="41.66733" lon="8.88004">
        <ele>28.98</ele>
        <time>2011-08-30T14:54:57Z</time>
      </trkpt>
      <trkpt lat="41.66733" lon="8.88003">
        <ele>30.42</ele>
        <time>2011-08-30T14:55:00Z</time>
      </trkpt>
      <trkpt lat="41.66734" lon="8.88002">
        <ele>31.86</ele>
        <time>2011-08-30T14:55:04Z</time>
      </trkpt>
      <trkpt lat="41.66733" lon="8.87997">
        <ele>35.23</ele>
        <time>2011-08-30T14:55:13Z</time>
      </trkpt>
      <trkpt lat="41.66729" lon="8.8798">
        <ele>38.59</ele>
        <time>2011-08-30T14:55:25Z</time>
      </trkpt>
      <trkpt lat="41.66727" lon="8.87972">
        <ele>40.51</ele>
        <time>2011-08-30T14:55:33Z</time>
      </trkpt>
      <trkpt lat="41.66724" lon="8.87966">
        <ele>41.95</ele>
        <time>2011-08-30T14:55:38Z</time>
      </trkpt>
      <trkpt lat="41.66717" lon="8.87953">
        <ele>44.84</ele>
        <time>2011-08-30T14:55:51Z</time>
      </trkpt>
      <trkpt lat="41.66714" lon="8.8795">
        <ele>47.72</ele>
        <time>2011-08-30T14:56:02Z</time>
      </trkpt>
      <trkpt lat="41.66714" lon="8.8795">
        <ele>47.72</ele>
        <time>2011-08-30T14:56:03Z</time>
      </trkpt>
      <trkpt lat="41.66703" lon="8.87953">
        <ele>49.16</ele>
        <time>2011-08-30T14:56:11Z</time>
      </trkpt>
      <trkpt lat="41.66698" lon="8.87956">
        <ele>50.61</ele>
        <time>2011-08-30T14:56:17Z</time>
      </trkpt>
      <trkpt lat="41.66692" lon="8.87967">
        <ele>52.53</ele>
        <time>2011-08-30T14:56:25Z</time>
      </trkpt>
      <trkpt lat="41.66684" lon="8.87975">
        <ele>54.93</ele>
        <time>2011-08-30T14:56:37Z</time>
      </trkpt>
      <trkpt lat="41.66683" lon="8.87978">
        <ele>56.86</ele>
        <time>2011-08-30T14:56:50Z</time>
      </trkpt>
      <trkpt lat="41.66683" lon="8.87981">
        <ele>59.26</ele>
        <time>2011-08-30T14:57:03Z</time>
      </trkpt>
      <trkpt lat="41.66675" lon="8.87982">
        <ele>59.74</ele>
        <time>2011-08-30T14:57:16Z</time>
      </trkpt>
      <trkpt lat="41.66675" lon="8.87981">
        <ele>60.22</ele>
        <time>2011-08-30T14:57:17Z</time>
      </trkpt>
      <trkpt lat="41.66667" lon="8.87974">
        <ele>60.22</ele>
        <time>2011-08-30T14:57:32Z</time>
      </trkpt>
      <trkpt lat="41.66667" lon="8.87973">
        <ele>60.22</ele>
        <time>2011-08-30T14:57:35Z</time>
      </trkpt>
      <trkpt lat="41.6667" lon="8.87954">
        <ele>58.78</ele>
        <time>2011-08-30T14:57:49Z</time>
      </trkpt>
      <trkpt lat="41.66674" lon="8.87941">
        <ele>57.34</ele>
        <time>2011-08-30T14:58:03Z</time>
      </trkpt>
      <trkpt lat="41.66673" lon="8.87936">
        <ele>56.37</ele>
        <time>2011-08-30T14:58:10Z</time>
      </trkpt>
      <trkpt lat="41.66667" lon="8.87925">
        <ele>55.89</ele>
        <time>2011-08-30T14:58:24Z</time>
      </trkpt>
      <trkpt lat="41.66666" lon="8.8792">
        <ele>55.41</ele>
        <time>2011-08-30T14:58:34Z</time>
      </trkpt>
      <trkpt lat="41.66667" lon="8.87906">
        <ele>54.93</ele>
        <time>2011-08-30T14:58:44Z</time>
      </trkpt>
      <trkpt lat="41.66666" lon="8.87895">
        <ele>54.93</ele>
        <time>2011-08-30T14:59:00Z</time>
      </trkpt>
      <trkpt lat="41.66667" lon="8.87895">
        <ele>54.45</ele>
        <time>2011-08-30T14:59:16Z</time>
      </trkpt>
      <trkpt lat="41.6667" lon="8.87898">
        <ele>53.97</ele>
        <time>2011-08-30T14:59:29Z</time>
      </trkpt>
      <trkpt lat="41.66672" lon="8.87904">
        <ele>53.49</ele>
        <time>2011-08-30T14:59:42Z</time>
      </trkpt>
      <trkpt lat="41.66672" lon="8.87908">
        <ele>51.57</ele>
        <time>2011-08-30T14:59:53Z</time>
      </trkpt>
      <trkpt lat="41.66674" lon="8.87912">
        <ele>49.65</ele>
        <time>2011-08-30T15:00:08Z</time>
      </trkpt>
      <trkpt lat="41.66674" lon="8.87915">
        <ele>47.24</ele>
        <time>2011-08-30T15:00:20Z</time>
      </trkpt>
      <trkpt lat="41.66677" lon="8.8792">
        <ele>44.36</ele>
        <time>2011-08-30T15:00:33Z</time>
      </trkpt>
      <trkpt lat="41.66681" lon="8.87922">
        <ele>41.95</ele>
        <time>2011-08-30T15:00:45Z</time>
      </trkpt>
      <trkpt lat="41.66683" lon="8.87921">
        <ele>40.99</ele>
        <time>2011-08-30T15:00:48Z</time>
      </trkpt>
      <trkpt lat="41.66686" lon="8.87919">
        <ele>40.51</ele>
        <time>2011-08-30T15:00:51Z</time>
      </trkpt>
      <trkpt lat="41.66692" lon="8.87902">
        <ele>37.15</ele>
        <time>2011-08-30T15:01:04Z</time>
      </trkpt>
      <trkpt lat="41.66686" lon="8.87884">
        <ele>35.71</ele>
        <time>2011-08-30T15:01:18Z</time>
      </trkpt>
      <trkpt lat="41.66683" lon="8.8788">
        <ele>35.71</ele>
        <time>2011-08-30T15:01:32Z</time>
      </trkpt>
      <trkpt lat="41.66684" lon="8.87882">
        <ele>36.67</ele>
        <time>2011-08-30T15:01:50Z</time>
      </trkpt>
      <trkpt lat="41.66687" lon="8.87887">
        <ele>37.15</ele>
        <time>2011-08-30T15:02:01Z</time>
      </trkpt>
      <trkpt lat="41.66689" lon="8.87891">
        <ele>38.11</ele>
        <time>2011-08-30T15:02:12Z</time>
      </trkpt>
      <trkpt lat="41.66694" lon="8.87894">
        <ele>39.07</ele>
        <time>2011-08-30T15:02:25Z</time>
      </trkpt>
      <trkpt lat="41.66699" lon="8.87897">
        <ele>39.55</ele>
        <time>2011-08-30T15:02:39Z</time>
      </trkpt>
      <trkpt lat="41.66702" lon="8.87901">
        <ele>40.99</ele>
        <time>2011-08-30T15:02:52Z</time>
      </trkpt>
      <trkpt lat="41.66706" lon="8.87904">
        <ele>41.47</ele>
        <time>2011-08-30T15:03:03Z</time>
      </trkpt>
      <trkpt lat="41.66704" lon="8.87904">
        <ele>41.47</ele>
        <time>2011-08-30T15:03:06Z</time>
      </trkpt>
      <trkpt lat="41.66702" lon="8.87904">
        <ele>41.95</ele>
        <time>2011-08-30T15:03:09Z</time>
      </trkpt>
      <trkpt lat="41.66692" lon="8.87896">
        <ele>42.44</ele>
        <time>2011-08-30T15:03:19Z</time>
      </trkpt>
      <trkpt lat="41.66686" lon="8.87891">
        <ele>42.92</ele>
        <time>2011-08-30T15:03:25Z</time>
      </trkpt>
      <trkpt lat="41.66672" lon="8.87878">
        <ele>43.88</ele>
        <time>2011-08-30T15:03:40Z</time>
      </trkpt>
      <trkpt lat="41.6667" lon="8.87873">
        <ele>43.4</ele>
        <time>2011-08-30T15:03:50Z</time>
      </trkpt>
      <trkpt lat="41.66668" lon="8.87873">
        <ele>38.59</ele>
        <time>2011-08-30T15:04:00Z</time>
      </trkpt>
      <trkpt lat="41.66668" lon="8.87873">
        <ele>41.95</ele>
        <time>2011-08-30T15:04:02Z</time>
      </trkpt>
      <trkpt lat="41.66665" lon="8.87872">
        <ele>41.95</ele>
        <time>2011-08-30T15:04:14Z</time>
      </trkpt>
      <trkpt lat="41.66651" lon="8.87865">
        <ele>41.95</ele>
        <time>2011-08-30T15:04:25Z</time>
      </trkpt>
      <trkpt lat="41.66634" lon="8.8786">
        <ele>41.95</ele>
        <time>2011-08-30T15:04:38Z</time>
      </trkpt>
      <trkpt lat="41.66615" lon="8.87854">
        <ele>42.44</ele>
        <time>2011-08-30T15:04:52Z</time>
      </trkpt>
      <trkpt lat="41.66597" lon="8.87848">
        <ele>44.36</ele>
        <time>2011-08-30T15:05:05Z</time>
      </trkpt>
      <trkpt lat="41.66574" lon="8.87844">
        <ele>45.8</ele>
        <time>2011-08-30T15:05:20Z</time>
      </trkpt>
      <trkpt lat="41.66554" lon="8.87837">
        <ele>47.24</ele>
        <time>2011-08-30T15:05:34Z</time>
      </trkpt>
      <trkpt lat="41.66542" lon="8.87834">
        <ele>48.2</ele>
        <time>2011-08-30T15:05:42Z</time>
      </trkpt>
      <trkpt lat="41.66531" lon="8.87831">
        <ele>49.65</ele>
        <time>2011-08-30T15:05:50Z</time>
      </trkpt>
      <trkpt lat="41.66513" lon="8.87825">
        <ele>50.61</ele>
        <time>2011-08-30T15:06:04Z</time>
      </trkpt>
      <trkpt lat="41.66508" lon="8.87823">
        <ele>50.61</ele>
        <time>2011-08-30T15:06:08Z</time>
      </trkpt>
      <trkpt lat="41.66502" lon="8.8782">
        <ele>51.09</ele>
        <time>2011-08-30T15:06:13Z</time>
      </trkpt>
      <trkpt lat="41.66497" lon="8.87818">
        <ele>51.57</ele>
        <time>2011-08-30T15:06:17Z</time>
      </trkpt>
      <trkpt lat="41.66488" lon="8.87819">
        <ele>52.05</ele>
        <time>2011-08-30T15:06:23Z</time>
      </trkpt>
      <trkpt lat="41.66475" lon="8.87815">
        <ele>52.53</ele>
        <time>2011-08-30T15:06:32Z</time>
      </trkpt>
      <trkpt lat="41.66465" lon="8.87815">
        <ele>53.49</ele>
        <time>2011-08-30T15:06:38Z</time>
      </trkpt>
      <trkpt lat="41.66446" lon="8.87812">
        <ele>53.97</ele>
        <time>2011-08-30T15:06:52Z</time>
      </trkpt>
      <trkpt lat="41.66424" lon="8.87804">
        <ele>54.93</ele>
        <time>2011-08-30T15:07:07Z</time>
      </trkpt>
      <trkpt lat="41.66409" lon="8.87798">
        <ele>55.41</ele>
        <time>2011-08-30T15:07:17Z</time>
      </trkpt>
      <trkpt lat="41.66399" lon="8.87795">
        <ele>56.37</ele>
        <time>2011-08-30T15:07:25Z</time>
      </trkpt>
      <trkpt lat="41.66379" lon="8.87793">
        <ele>56.86</ele>
        <time>2011-08-30T15:07:38Z</time>
      </trkpt>
      <trkpt lat="41.66371" lon="8.87787">
        <ele>55.41</ele>
        <time>2011-08-30T15:07:49Z</time>
      </trkpt>
      <trkpt lat="41.66367" lon="8.87782">
        <ele>54.45</ele>
        <time>2011-08-30T15:07:59Z</time>
      </trkpt>
      <trkpt lat="41.66356" lon="8.8778">
        <ele>54.93</ele>
        <time>2011-08-30T15:08:07Z</time>
      </trkpt>
      <trkpt lat="41.66335" lon="8.87774">
        <ele>54.45</ele>
        <time>2011-08-30T15:08:23Z</time>
      </trkpt>
      <trkpt lat="41.66316" lon="8.8777">
        <ele>56.37</ele>
        <time>2011-08-30T15:08:36Z</time>
      </trkpt>
      <trkpt lat="41.66298" lon="8.87762">
        <ele>56.86</ele>
        <time>2011-08-30T15:08:49Z</time>
      </trkpt>
      <trkpt lat="41.66296" lon="8.87761">
        <ele>57.34</ele>
        <time>2011-08-30T15:08:50Z</time>
      </trkpt>
      <trkpt lat="41.66285" lon="8.87759">
        <ele>58.3</ele>
        <time>2011-08-30T15:08:59Z</time>
      </trkpt>
      <trkpt lat="41.66278" lon="8.87753">
        <ele>59.26</ele>
        <time>2011-08-30T15:09:11Z</time>
      </trkpt>
      <trkpt lat="41.66273" lon="8.87747">
        <ele>59.74</ele>
        <time>2011-08-30T15:09:23Z</time>
      </trkpt>
      <trkpt lat="41.66271" lon="8.87747">
        <ele>60.22</ele>
        <time>2011-08-30T15:09:25Z</time>
      </trkpt>
      <trkpt lat="41.66257" lon="8.87742">
        <ele>60.22</ele>
        <time>2011-08-30T15:09:36Z</time>
      </trkpt>
      <trkpt lat="41.6625" lon="8.8774">
        <ele>60.7</ele>
        <time>2011-08-30T15:09:42Z</time>
      </trkpt>
      <trkpt lat="41.66241" lon="8.87735">
        <ele>60.7</ele>
        <time>2011-08-30T15:09:49Z</time>
      </trkpt>
      <trkpt lat="41.6622" lon="8.87729">
        <ele>61.18</ele>
        <time>2011-08-30T15:10:03Z</time>
      </trkpt>
      <trkpt lat="41.66206" lon="8.87725">
        <ele>61.18</ele>
        <time>2011-08-30T15:10:17Z</time>
      </trkpt>
      <trkpt lat="41.66201" lon="8.87723">
        <ele>61.66</ele>
        <time>2011-08-30T15:10:21Z</time>
      </trkpt>
      <trkpt lat="41.66183" lon="8.87716">
        <ele>61.66</ele>
        <time>2011-08-30T15:10:35Z</time>
      </trkpt>
      <trkpt lat="41.66163" lon="8.87709">
        <ele>61.66</ele>
        <time>2011-08-30T15:10:49Z</time>
      </trkpt>
      <trkpt lat="41.66143" lon="8.87703">
        <ele>62.14</ele>
        <time>2011-08-30T15:11:04Z</time>
      </trkpt>
      <trkpt lat="41.66126" lon="8.87696">
        <ele>61.66</ele>
        <time>2011-08-30T15:11:17Z</time>
      </trkpt>
      <trkpt lat="41.66105" lon="8.87686">
        <ele>61.66</ele>
        <time>2011-08-30T15:11:33Z</time>
      </trkpt>
      <trkpt lat="41.66102" lon="8.87685">
        <ele>61.18</ele>
        <time>2011-08-30T15:11:36Z</time>
      </trkpt>
      <trkpt lat="41.66085" lon="8.8768">
        <ele>61.18</ele>
        <time>2011-08-30T15:11:51Z</time>
      </trkpt>
      <trkpt lat="41.66074" lon="8.87676">
        <ele>61.18</ele>
        <time>2011-08-30T15:11:59Z</time>
      </trkpt>
      <trkpt lat="41.66067" lon="8.87674">
        <ele>61.18</ele>
        <time>2011-08-30T15:12:04Z</time>
      </trkpt>
      <trkpt lat="41.6606" lon="8.87672">
        <ele>61.18</ele>
        <time>2011-08-30T15:12:09Z</time>
      </trkpt>
      <trkpt lat="41.66041" lon="8.8766">
        <ele>61.66</ele>
        <time>2011-08-30T15:12:24Z</time>
      </trkpt>
      <trkpt lat="41.66037" lon="8.8766">
        <ele>61.66</ele>
        <time>2011-08-30T15:12:27Z</time>
      </trkpt>
      <trkpt lat="41.66031" lon="8.87658">
        <ele>61.66</ele>
        <time>2011-08-30T15:12:31Z</time>
      </trkpt>
      <trkpt lat="41.6602" lon="8.87655">
        <ele>61.66</ele>
        <time>2011-08-30T15:12:39Z</time>
      </trkpt>
      <trkpt lat="41.66006" lon="8.8765">
        <ele>61.66</ele>
        <time>2011-08-30T15:12:49Z</time>
      </trkpt>
      <trkpt lat="41.65987" lon="8.87641">
        <ele>61.66</ele>
        <time>2011-08-30T15:13:02Z</time>
      </trkpt>
      <trkpt lat="41.65986" lon="8.8764">
        <ele>61.66</ele>
        <time>2011-08-30T15:13:03Z</time>
      </trkpt>
      <trkpt lat="41.6598" lon="8.87637">
        <ele>61.66</ele>
        <time>2011-08-30T15:13:08Z</time>
      </trkpt>
      <trkpt lat="41.6597" lon="8.87635">
        <ele>62.14</ele>
        <time>2011-08-30T15:13:16Z</time>
      </trkpt>
      <trkpt lat="41.65947" lon="8.87627">
        <ele>62.14</ele>
        <time>2011-08-30T15:13:32Z</time>
      </trkpt>
      <trkpt lat="41.65926" lon="8.87619">
        <ele>63.1</ele>
        <time>2011-08-30T15:13:46Z</time>
      </trkpt>
      <trkpt lat="41.65909" lon="8.87612">
        <ele>63.1</ele>
        <time>2011-08-30T15:13:57Z</time>
      </trkpt>
      <trkpt lat="41.659" lon="8.87608">
        <ele>54.93</ele>
        <time>2011-08-30T15:14:04Z</time>
      </trkpt>
      <trkpt lat="41.65899" lon="8.87607">
        <ele>39.55</ele>
        <time>2011-08-30T15:14:05Z</time>
      </trkpt>
      <trkpt lat="41.65898" lon="8.87607">
        <ele>26.09</ele>
        <time>2011-08-30T15:14:06Z</time>
      </trkpt>
      <trkpt lat="41.65897" lon="8.87607">
        <ele>15.52</ele>
        <time>2011-08-30T15:14:07Z</time>
      </trkpt>
      <trkpt lat="41.65895" lon="8.87607">
        <ele>10.71</ele>
        <time>2011-08-30T15:14:08Z</time>
      </trkpt>
      <trkpt lat="41.65894" lon="8.87607">
        <ele>3.5</ele>
        <time>2011-08-30T15:14:09Z</time>
      </trkpt>
      <trkpt lat="41.65893" lon="8.87607">
        <ele>-4.19</ele>
        <time>2011-08-30T15:14:10Z</time>
      </trkpt>
      <trkpt lat="41.65892" lon="8.87607">
        <ele>-8.03</ele>
        <time>2011-08-30T15:14:11Z</time>
      </trkpt>
      <trkpt lat="41.6589" lon="8.87608">
        <ele>-12.84</ele>
        <time>2011-08-30T15:14:12Z</time>
      </trkpt>
      <trkpt lat="41.65889" lon="8.87608">
        <ele>-17.65</ele>
        <time>2011-08-30T15:14:14Z</time>
      </trkpt>
      <trkpt lat="41.65887" lon="8.87608">
        <ele>-22.93</ele>
        <time>2011-08-30T15:14:16Z</time>
      </trkpt>
      <trkpt lat="41.65885" lon="8.87608">
        <ele>-26.3</ele>
        <time>2011-08-30T15:14:18Z</time>
      </trkpt>
      <trkpt lat="41.65878" lon="8.87607">
        <ele>-29.18</ele>
        <time>2011-08-30T15:14:24Z</time>
      </trkpt>
      <trkpt lat="41.65869" lon="8.87608">
        <ele>-29.66</ele>
        <time>2011-08-30T15:14:30Z</time>
      </trkpt>
      <trkpt lat="41.65857" lon="8.87605">
        <ele>-30.14</ele>
        <time>2011-08-30T15:14:39Z</time>
      </trkpt>
      <trkpt lat="41.65842" lon="8.876">
        <ele>-30.14</ele>
        <time>2011-08-30T15:14:51Z</time>
      </trkpt>
      <trkpt lat="41.65828" lon="8.87592">
        <ele>-30.14</ele>
        <time>2011-08-30T15:15:02Z</time>
      </trkpt>
      <trkpt lat="41.65827" lon="8.87591">
        <ele>-30.14</ele>
        <time>2011-08-30T15:15:03Z</time>
      </trkpt>
      <trkpt lat="41.65822" lon="8.87589">
        <ele>-29.66</ele>
        <time>2011-08-30T15:15:07Z</time>
      </trkpt>
      <trkpt lat="41.65801" lon="8.8758">
        <ele>-29.66</ele>
        <time>2011-08-30T15:15:22Z</time>
      </trkpt>
      <trkpt lat="41.65782" lon="8.87576">
        <ele>-29.66</ele>
        <time>2011-08-30T15:15:36Z</time>
      </trkpt>
      <trkpt lat="41.65779" lon="8.87576">
        <ele>-29.66</ele>
        <time>2011-08-30T15:15:38Z</time>
      </trkpt>
      <trkpt lat="41.65758" lon="8.8757">
        <ele>-29.18</ele>
        <time>2011-08-30T15:15:52Z</time>
      </trkpt>
      <trkpt lat="41.65751" lon="8.87567">
        <ele>-29.18</ele>
        <time>2011-08-30T15:15:56Z</time>
      </trkpt>
      <trkpt lat="41.65736" lon="8.87562">
        <ele>-29.66</ele>
        <time>2011-08-30T15:16:07Z</time>
      </trkpt>
      <trkpt lat="41.65728" lon="8.8756">
        <ele>-29.18</ele>
        <time>2011-08-30T15:16:12Z</time>
      </trkpt>
      <trkpt lat="41.65713" lon="8.87556">
        <ele>-29.18</ele>
        <time>2011-08-30T15:16:24Z</time>
      </trkpt>
      <trkpt lat="41.65708" lon="8.87555">
        <ele>-29.18</ele>
        <time>2011-08-30T15:16:28Z</time>
      </trkpt>
      <trkpt lat="41.65688" lon="8.87542">
        <ele>-29.18</ele>
        <time>2011-08-30T15:16:43Z</time>
      </trkpt>
      <trkpt lat="41.65683" lon="8.8754">
        <ele>-29.18</ele>
        <time>2011-08-30T15:16:47Z</time>
      </trkpt>
      <trkpt lat="41.65677" lon="8.87538">
        <ele>-29.18</ele>
        <time>2011-08-30T15:16:52Z</time>
      </trkpt>
      <trkpt lat="41.65673" lon="8.87536">
        <ele>-29.18</ele>
        <time>2011-08-30T15:16:56Z</time>
      </trkpt>
      <trkpt lat="41.65669" lon="8.87534">
        <ele>-28.7</ele>
        <time>2011-08-30T15:16:59Z</time>
      </trkpt>
      <trkpt lat="41.65648" lon="8.87527">
        <ele>-28.7</ele>
        <time>2011-08-30T15:17:14Z</time>
      </trkpt>
      <trkpt lat="41.65641" lon="8.87522">
        <ele>-28.7</ele>
        <time>2011-08-30T15:17:20Z</time>
      </trkpt>
      <trkpt lat="41.65634" lon="8.87521">
        <ele>-28.7</ele>
        <time>2011-08-30T15:17:24Z</time>
      </trkpt>
      <trkpt lat="41.6561" lon="8.87517">
        <ele>-28.7</ele>
        <time>2011-08-30T15:17:39Z</time>
      </trkpt>
      <trkpt lat="41.65602" lon="8.87513">
        <ele>-28.7</ele>
        <time>2011-08-30T15:17:51Z</time>
      </trkpt>
      <trkpt lat="41.6559" lon="8.87508">
        <ele>-28.7</ele>
        <time>2011-08-30T15:18:05Z</time>
      </trkpt>
      <trkpt lat="41.65582" lon="8.87503">
        <ele>-27.74</ele>
        <time>2011-08-30T15:18:19Z</time>
      </trkpt>
      <trkpt lat="41.65562" lon="8.87496">
        <ele>-27.74</ele>
        <time>2011-08-30T15:18:33Z</time>
      </trkpt>
      <trkpt lat="41.65541" lon="8.87494">
        <ele>-27.74</ele>
        <time>2011-08-30T15:18:47Z</time>
      </trkpt>
      <trkpt lat="41.65539" lon="8.87493">
        <ele>-28.22</ele>
        <time>2011-08-30T15:18:48Z</time>
      </trkpt>
      <trkpt lat="41.65515" lon="8.8749">
        <ele>-27.26</ele>
        <time>2011-08-30T15:19:04Z</time>
      </trkpt>
      <trkpt lat="41.65492" lon="8.87483">
        <ele>-27.26</ele>
        <time>2011-08-30T15:19:17Z</time>
      </trkpt>
      <trkpt lat="41.65484" lon="8.87477">
        <ele>-27.26</ele>
        <time>2011-08-30T15:19:23Z</time>
      </trkpt>
      <trkpt lat="41.65473" lon="8.87473">
        <ele>-27.26</ele>
        <time>2011-08-30T15:19:30Z</time>
      </trkpt>
      <trkpt lat="41.6546" lon="8.87463">
        <ele>-27.26</ele>
        <time>2011-08-30T15:19:46Z</time>
      </trkpt>
      <trkpt lat="41.65458" lon="8.87461">
        <ele>-26.78</ele>
        <time>2011-08-30T15:19:50Z</time>
      </trkpt>
      <trkpt lat="41.65448" lon="8.87457">
        <ele>-26.78</ele>
        <time>2011-08-30T15:20:00Z</time>
      </trkpt>
      <trkpt lat="41.65433" lon="8.87451">
        <ele>-26.3</ele>
        <time>2011-08-30T15:20:12Z</time>
      </trkpt>
      <trkpt lat="41.65427" lon="8.8745">
        <ele>-26.3</ele>
        <time>2011-08-30T15:20:16Z</time>
      </trkpt>
      <trkpt lat="41.65402" lon="8.87443">
        <ele>-26.3</ele>
        <time>2011-08-30T15:20:33Z</time>
      </trkpt>
      <trkpt lat="41.6539" lon="8.87442">
        <ele>-26.3</ele>
        <time>2011-08-30T15:20:41Z</time>
      </trkpt>
      <trkpt lat="41.65381" lon="8.8744">
        <ele>-26.3</ele>
        <time>2011-08-30T15:20:47Z</time>
      </trkpt>
      <trkpt lat="41.65369" lon="8.87439">
        <ele>-26.3</ele>
        <time>2011-08-30T15:20:55Z</time>
      </trkpt>
      <trkpt lat="41.6536" lon="8.87437">
        <ele>-25.82</ele>
        <time>2011-08-30T15:21:01Z</time>
      </trkpt>
      <trkpt lat="41.65349" lon="8.87435">
        <ele>-25.82</ele>
        <time>2011-08-30T15:21:09Z</time>
      </trkpt>
      <trkpt lat="41.65327" lon="8.87431">
        <ele>-25.82</ele>
        <time>2011-08-30T15:21:23Z</time>
      </trkpt>
      <trkpt lat="41.65305" lon="8.8742">
        <ele>-25.34</ele>
        <time>2011-08-30T15:21:39Z</time>
      </trkpt>
      <trkpt lat="41.65285" lon="8.87417">
        <ele>-25.82</ele>
        <time>2011-08-30T15:21:52Z</time>
      </trkpt>
      <trkpt lat="41.6528" lon="8.87414">
        <ele>-25.34</ele>
        <time>2011-08-30T15:21:58Z</time>
      </trkpt>
      <trkpt lat="41.65276" lon="8.87413">
        <ele>-25.82</ele>
        <time>2011-08-30T15:22:01Z</time>
      </trkpt>
      <trkpt lat="41.65271" lon="8.8741">
        <ele>-25.34</ele>
        <time>2011-08-30T15:22:05Z</time>
      </trkpt>
      <trkpt lat="41.65251" lon="8.87404">
        <ele>-25.34</ele>
        <time>2011-08-30T15:22:19Z</time>
      </trkpt>
      <trkpt lat="41.65243" lon="8.87401">
        <ele>-25.34</ele>
        <time>2011-08-30T15:22:24Z</time>
      </trkpt>
      <trkpt lat="41.6522" lon="8.87396">
        <ele>-24.86</ele>
        <time>2011-08-30T15:22:40Z</time>
      </trkpt>
      <trkpt lat="41.65198" lon="8.87392">
        <ele>-24.86</ele>
        <time>2011-08-30T15:22:55Z</time>
      </trkpt>
      <trkpt lat="41.65183" lon="8.87389">
        <ele>-24.86</ele>
        <time>2011-08-30T15:23:05Z</time>
      </trkpt>
      <trkpt lat="41.65169" lon="8.87381">
        <ele>-24.86</ele>
        <time>2011-08-30T15:23:17Z</time>
      </trkpt>
      <trkpt lat="41.65163" lon="8.87377">
        <ele>-24.86</ele>
        <time>2011-08-30T15:23:22Z</time>
      </trkpt>
      <trkpt lat="41.65143" lon="8.8737">
        <ele>-24.38</ele>
        <time>2011-08-30T15:23:35Z</time>
      </trkpt>
      <trkpt lat="41.65118" lon="8.87357">
        <ele>-24.38</ele>
        <time>2011-08-30T15:23:52Z</time>
      </trkpt>
      <trkpt lat="41.65111" lon="8.87355">
        <ele>-24.38</ele>
        <time>2011-08-30T15:23:56Z</time>
      </trkpt>
      <trkpt lat="41.65094" lon="8.87351">
        <ele>-24.38</ele>
        <time>2011-08-30T15:24:07Z</time>
      </trkpt>
      <trkpt lat="41.65069" lon="8.87347">
        <ele>-23.41</ele>
        <time>2011-08-30T15:24:23Z</time>
      </trkpt>
      <trkpt lat="41.65047" lon="8.87339">
        <ele>-23.41</ele>
        <time>2011-08-30T15:24:38Z</time>
      </trkpt>
      <trkpt lat="41.65036" lon="8.87336">
        <ele>-23.9</ele>
        <time>2011-08-30T15:24:46Z</time>
      </trkpt>
      <trkpt lat="41.65013" lon="8.87329">
        <ele>-23.41</ele>
        <time>2011-08-30T15:25:01Z</time>
      </trkpt>
      <trkpt lat="41.64995" lon="8.87319">
        <ele>-23.41</ele>
        <time>2011-08-30T15:25:16Z</time>
      </trkpt>
      <trkpt lat="41.64972" lon="8.87305">
        <ele>-23.41</ele>
        <time>2011-08-30T15:25:30Z</time>
      </trkpt>
      <trkpt lat="41.64958" lon="8.87294">
        <ele>-23.41</ele>
        <time>2011-08-30T15:25:40Z</time>
      </trkpt>
      <trkpt lat="41.64939" lon="8.87283">
        <ele>-23.41</ele>
        <time>2011-08-30T15:25:55Z</time>
      </trkpt>
      <trkpt lat="41.64925" lon="8.87281">
        <ele>-22.93</ele>
        <time>2011-08-30T15:26:04Z</time>
      </trkpt>
      <trkpt lat="41.64912" lon="8.87273">
        <ele>-23.41</ele>
        <time>2011-08-30T15:26:20Z</time>
      </trkpt>
      <trkpt lat="41.64903" lon="8.87272">
        <ele>-22.93</ele>
        <time>2011-08-30T15:26:30Z</time>
      </trkpt>
      <trkpt lat="41.649" lon="8.87273">
        <ele>-23.41</ele>
        <time>2011-08-30T15:26:34Z</time>
      </trkpt>
      <trkpt lat="41.64893" lon="8.87272">
        <ele>-22.93</ele>
        <time>2011-08-30T15:26:40Z</time>
      </trkpt>
      <trkpt lat="41.64882" lon="8.87271">
        <ele>-23.41</ele>
        <time>2011-08-30T15:26:47Z</time>
      </trkpt>
      <trkpt lat="41.64872" lon="8.87273">
        <ele>-22.93</ele>
        <time>2011-08-30T15:26:53Z</time>
      </trkpt>
      <trkpt lat="41.64851" lon="8.87271">
        <ele>-22.93</ele>
        <time>2011-08-30T15:27:07Z</time>
      </trkpt>
      <trkpt lat="41.64843" lon="8.87269">
        <ele>-22.93</ele>
        <time>2011-08-30T15:27:12Z</time>
      </trkpt>
      <trkpt lat="41.64837" lon="8.87266">
        <ele>-22.45</ele>
        <time>2011-08-30T15:27:16Z</time>
      </trkpt>
      <trkpt lat="41.64832" lon="8.87265">
        <ele>-22.45</ele>
        <time>2011-08-30T15:27:19Z</time>
      </trkpt>
      <trkpt lat="41.64811" lon="8.87254">
        <ele>-22.45</ele>
        <time>2011-08-30T15:27:33Z</time>
      </trkpt>
      <trkpt lat="41.648" lon="8.87251">
        <ele>-21.97</ele>
        <time>2011-08-30T15:27:40Z</time>
      </trkpt>
      <trkpt lat="41.64782" lon="8.8724">
        <ele>-21.97</ele>
        <time>2011-08-30T15:27:54Z</time>
      </trkpt>
      <trkpt lat="41.64777" lon="8.8724">
        <ele>-21.97</ele>
        <time>2011-08-30T15:27:58Z</time>
      </trkpt>
      <trkpt lat="41.64748" lon="8.87241">
        <ele>-21.49</ele>
        <time>2011-08-30T15:28:15Z</time>
      </trkpt>
      <trkpt lat="41.6473" lon="8.87265">
        <ele>-21.97</ele>
        <time>2011-08-30T15:28:28Z</time>
      </trkpt>
      <trkpt lat="41.64726" lon="8.87272">
        <ele>-21.97</ele>
        <time>2011-08-30T15:28:40Z</time>
      </trkpt>
      <trkpt lat="41.64726" lon="8.87272">
        <ele>-25.82</ele>
        <time>2011-08-30T15:28:42Z</time>
      </trkpt>
      <trkpt lat="41.64726" lon="8.87272">
        <ele>-2.75</ele>
        <time>2011-08-31T14:11:48Z</time>
      </trkpt>
      <trkpt lat="41.64726" lon="8.87272">
        <ele>-9.96</ele>
        <time>2011-08-31T14:11:50Z</time>
      </trkpt>
      <trkpt lat="41.61459" lon="8.78908">
        <ele>-9.96</ele>
        <time>2011-08-31T14:12:04Z</time>
      </trkpt>
      <trkpt lat="41.61471" lon="8.78909">
        <ele>-9</ele>
        <time>2011-08-31T14:12:29Z</time>
      </trkpt>
      <trkpt lat="41.61472" lon="8.7891">
        <ele>-11.88</ele>
        <time>2011-08-31T14:12:33Z</time>
      </trkpt>
      <trkpt lat="41.61471" lon="8.78914">
        <ele>-8.51</ele>
        <time>2011-08-31T14:12:39Z</time>
      </trkpt>
      <trkpt lat="41.61471" lon="8.78914">
        <ele>-9</ele>
        <time>2011-08-31T14:12:40Z</time>
      </trkpt>
      <trkpt lat="41.61472" lon="8.78915">
        <ele>-11.88</ele>
        <time>2011-08-31T14:12:42Z</time>
      </trkpt>
      <trkpt lat="41.61472" lon="8.78915">
        <ele>-6.59</ele>
        <time>2011-08-31T14:12:43Z</time>
      </trkpt>
      <trkpt lat="41.61472" lon="8.78915">
        <ele>-7.07</ele>
        <time>2011-08-31T14:12:44Z</time>
      </trkpt>
      <trkpt lat="41.61465" lon="8.7892">
        <ele>-4.19</ele>
        <time>2011-08-31T14:13:09Z</time>
      </trkpt>
    </trkseg>
  </trk>
</gpx>